SIA22 WSSS-KEWR
Flight info
| Callsign | SIA22 |
|---|---|
| Flight time | N/A |
| Altitude | 32000 |
| Route | TOMAN3A TOMAN L625 AKMON/K0945F320 L625 UDOSI/K0932F350 L625 ANOKI/N0501F350 L625 AVMUP/N0496F360 L625 MEVIN/N0497F350 B462 KAZIK Y59 AZAMA Y57 TAMAK/N0488F370 Y57 PUTER A590 PASRO/N0494F390 A590 HAMND/N0491F410 DCT TED J511 GKN J124 ORT DCT 63N140W 63N130W 62N120W 59N110W 5530N10000W DCT MISAX DCT SSM DCT BUF DCT HNK FLOSI4 |
| Aircraft | A359/H-SDE1E2E3GHIJ1J2J3J5M1P2RWXYZ/LB1D1 |
Departure
| Time | N/A |
|---|---|
| Airport | Singapore Changi Airport (WSSS) |
Arrival
| Time | 2026-05-01 15:03 |
|---|---|
| Airport | Newark Liberty International Airport (KEWR) |
| Time | Latitude | Longitude | Altitude | Speed | Heading |
|---|---|---|---|---|---|
| 2026-05-01 07:23 | 56.82924 | -175.85698 | 38458 ft | 505 kts | 68° |
| 2026-05-01 07:24 | 56.87222 | -175.68085 | 38457 ft | 505 kts | 68° |
| 2026-05-01 07:24 | 56.90052 | -175.56396 | 38461 ft | 505 kts | 68° |
| 2026-05-01 07:25 | 56.92894 | -175.44601 | 38454 ft | 505 kts | 68° |
| 2026-05-01 07:25 | 56.95724 | -175.32803 | 38453 ft | 505 kts | 68° |
| 2026-05-01 07:26 | 56.98520 | -175.21077 | 38450 ft | 505 kts | 69° |
| 2026-05-01 07:26 | 57.01330 | -175.09230 | 38455 ft | 506 kts | 69° |
| 2026-05-01 07:27 | 57.04131 | -174.97356 | 38443 ft | 506 kts | 69° |
| 2026-05-01 07:27 | 57.06907 | -174.85525 | 38447 ft | 506 kts | 69° |
| 2026-05-01 07:28 | 57.09680 | -174.73642 | 38442 ft | 505 kts | 69° |
| 2026-05-01 07:28 | 57.12441 | -174.61736 | 38437 ft | 506 kts | 69° |
| 2026-05-01 07:29 | 57.15182 | -174.49856 | 38437 ft | 506 kts | 69° |
| 2026-05-01 07:29 | 57.17929 | -174.37878 | 38437 ft | 506 kts | 69° |
| 2026-05-01 07:30 | 57.20646 | -174.25976 | 38430 ft | 506 kts | 69° |
| 2026-05-01 07:30 | 57.23366 | -174.13981 | 38428 ft | 506 kts | 69° |
| 2026-05-01 07:31 | 57.26077 | -174.01963 | 38411 ft | 506 kts | 70° |
| 2026-05-01 07:32 | 57.32794 | -173.71892 | 38434 ft | 506 kts | 70° |
| 2026-05-01 07:33 | 57.36858 | -173.53811 | 38430 ft | 506 kts | 69° |
| 2026-05-01 07:33 | 57.40950 | -173.35790 | 38429 ft | 507 kts | 69° |
| 2026-05-01 07:34 | 57.45001 | -173.17737 | 38425 ft | 507 kts | 69° |
| 2026-05-01 07:35 | 57.47694 | -173.05613 | 38425 ft | 506 kts | 70° |
| 2026-05-01 07:35 | 57.50360 | -172.93546 | 38416 ft | 506 kts | 70° |
| 2026-05-01 07:36 | 57.53029 | -172.81392 | 38408 ft | 506 kts | 70° |
| 2026-05-01 07:36 | 57.55674 | -172.69286 | 38407 ft | 507 kts | 70° |
| 2026-05-01 07:37 | 57.59627 | -172.51053 | 38401 ft | 507 kts | 70° |
| 2026-05-01 07:37 | 57.62258 | -172.38828 | 38403 ft | 506 kts | 70° |
| 2026-05-01 07:38 | 57.64863 | -172.26651 | 38403 ft | 506 kts | 70° |
| 2026-05-01 07:39 | 57.68765 | -172.08276 | 38395 ft | 507 kts | 70° |
| 2026-05-01 07:39 | 57.72635 | -171.89885 | 38389 ft | 507 kts | 71° |
| 2026-05-01 07:40 | 57.75206 | -171.77568 | 38389 ft | 507 kts | 71° |
| 2026-05-01 07:40 | 57.77746 | -171.65333 | 38385 ft | 507 kts | 71° |
| 2026-05-01 07:41 | 57.80294 | -171.52986 | 38385 ft | 507 kts | 71° |
| 2026-05-01 07:42 | 57.84086 | -171.34474 | 38372 ft | 507 kts | 72° |
| 2026-05-01 07:42 | 57.86603 | -171.22086 | 38378 ft | 507 kts | 72° |
| 2026-05-01 07:43 | 57.89111 | -171.09660 | 38368 ft | 507 kts | 71° |
| 2026-05-01 07:43 | 57.92837 | -170.91069 | 38741 ft | 508 kts | 72° |
| 2026-05-01 07:44 | 57.95315 | -170.78609 | 39044 ft | 508 kts | 72° |
| 2026-05-01 07:44 | 57.97869 | -170.66176 | 39290 ft | 509 kts | 70° |
| 2026-05-01 07:45 | 57.99200 | -170.60063 | 39427 ft | 509 kts | 69° |
| 2026-05-01 07:45 | 58.00557 | -170.53871 | 39567 ft | 510 kts | 70° |
| 2026-05-01 07:45 | 58.01904 | -170.47700 | 39706 ft | 510 kts | 70° |
| 2026-05-01 07:45 | 58.03247 | -170.41496 | 39832 ft | 510 kts | 70° |
| 2026-05-01 07:46 | 58.04580 | -170.35280 | 39944 ft | 510 kts | 70° |
| 2026-05-01 07:46 | 58.05889 | -170.29132 | 40064 ft | 510 kts | 70° |
| 2026-05-01 07:46 | 58.08521 | -170.16660 | 40294 ft | 510 kts | 70° |
| 2026-05-01 07:47 | 58.09833 | -170.10412 | 40329 ft | 511 kts | 70° |
| 2026-05-01 07:47 | 58.12436 | -169.97964 | 40346 ft | 510 kts | 70° |
| 2026-05-01 07:48 | 58.16334 | -169.79191 | 40328 ft | 510 kts | 71° |
| 2026-05-01 07:48 | 58.18906 | -169.66712 | 40332 ft | 511 kts | 71° |
| 2026-05-01 07:49 | 58.22761 | -169.47858 | 40321 ft | 510 kts | 71° |
| 2026-05-01 07:50 | 58.25300 | -169.35343 | 40327 ft | 510 kts | 71° |
| 2026-05-01 07:50 | 58.29106 | -169.16431 | 40327 ft | 510 kts | 71° |
| 2026-05-01 07:51 | 58.31626 | -169.03807 | 40314 ft | 510 kts | 71° |
| 2026-05-01 07:52 | 58.35362 | -168.84951 | 40319 ft | 509 kts | 71° |
| 2026-05-01 07:52 | 58.37854 | -168.72268 | 40304 ft | 509 kts | 71° |
| 2026-05-01 07:53 | 58.41541 | -168.53352 | 40317 ft | 509 kts | 71° |
| 2026-05-01 07:53 | 58.43996 | -168.40662 | 40305 ft | 509 kts | 72° |
| 2026-05-01 07:55 | 58.50067 | -168.08905 | 40310 ft | 509 kts | 72° |
| 2026-05-01 07:56 | 58.56037 | -167.77159 | 40294 ft | 508 kts | 72° |
| 2026-05-01 07:57 | 58.59588 | -167.58025 | 40294 ft | 508 kts | 72° |
| 2026-05-01 07:58 | 58.64278 | -167.32453 | 40276 ft | 508 kts | 72° |
| 2026-05-01 07:59 | 58.68919 | -167.06803 | 40295 ft | 508 kts | 73° |
| 2026-05-01 08:00 | 58.75864 | -166.68319 | 40289 ft | 508 kts | 73° |
| 2026-05-01 08:01 | 58.80091 | -166.44642 | 40292 ft | 508 kts | 73° |
| 2026-05-01 08:02 | 58.83485 | -166.25378 | 40291 ft | 508 kts | 73° |
| 2026-05-01 08:03 | 58.86870 | -166.05970 | 40297 ft | 508 kts | 73° |
| 2026-05-01 08:03 | 58.90229 | -165.86558 | 40290 ft | 507 kts | 73° |
| 2026-05-01 08:04 | 58.94683 | -165.60646 | 40292 ft | 507 kts | 74° |
| 2026-05-01 08:05 | 58.97987 | -165.41171 | 40294 ft | 507 kts | 74° |
| 2026-05-01 08:06 | 59.01249 | -165.21739 | 40300 ft | 507 kts | 74° |
| 2026-05-01 08:07 | 59.05566 | -164.95690 | 40298 ft | 506 kts | 75° |
| 2026-05-01 08:08 | 59.08770 | -164.76102 | 40304 ft | 506 kts | 75° |
| 2026-05-01 08:09 | 59.12984 | -164.50011 | 40307 ft | 506 kts | 75° |
| 2026-05-01 08:09 | 59.15076 | -164.36911 | 40310 ft | 506 kts | 75° |
| 2026-05-01 08:10 | 59.19224 | -164.10638 | 40311 ft | 506 kts | 75° |
| 2026-05-01 08:11 | 59.23304 | -163.84400 | 40317 ft | 506 kts | 76° |
| 2026-05-01 08:12 | 59.26342 | -163.64595 | 40332 ft | 507 kts | 76° |
| 2026-05-01 08:13 | 59.29337 | -163.44841 | 40322 ft | 507 kts | 76° |
| 2026-05-01 08:13 | 59.32317 | -163.24955 | 40330 ft | 507 kts | 76° |
| 2026-05-01 08:14 | 59.34273 | -163.11777 | 40328 ft | 507 kts | 76° |
| 2026-05-01 08:14 | 59.36229 | -162.98481 | 40335 ft | 507 kts | 76° |
| 2026-05-01 08:15 | 59.39139 | -162.78506 | 40343 ft | 507 kts | 77° |
| 2026-05-01 08:16 | 59.41048 | -162.65271 | 40345 ft | 507 kts | 77° |
| 2026-05-01 08:16 | 59.42961 | -162.51900 | 40344 ft | 507 kts | 77° |
| 2026-05-01 08:17 | 59.44859 | -162.38520 | 40356 ft | 507 kts | 77° |
| 2026-05-01 08:17 | 59.46788 | -162.25258 | 40362 ft | 508 kts | 75° |
| 2026-05-01 08:18 | 59.49045 | -162.12021 | 40370 ft | 510 kts | 73° |
| 2026-05-01 08:19 | 59.53581 | -161.85601 | 40390 ft | 509 kts | 74° |
| 2026-05-01 08:19 | 59.55782 | -161.72310 | 40396 ft | 509 kts | 74° |
| 2026-05-01 08:20 | 59.57945 | -161.59101 | 40399 ft | 509 kts | 75° |
| 2026-05-01 08:20 | 59.60115 | -161.45758 | 40399 ft | 509 kts | 75° |
| 2026-05-01 08:21 | 59.62271 | -161.32410 | 40405 ft | 509 kts | 75° |
| 2026-05-01 08:21 | 59.64401 | -161.19125 | 40407 ft | 509 kts | 75° |
| 2026-05-01 08:22 | 59.66533 | -161.05726 | 40416 ft | 509 kts | 75° |
| 2026-05-01 08:22 | 59.68636 | -160.92412 | 40415 ft | 509 kts | 75° |
| 2026-05-01 08:23 | 59.70727 | -160.79068 | 40436 ft | 509 kts | 75° |
| 2026-05-01 08:23 | 59.72814 | -160.65644 | 40415 ft | 509 kts | 75° |
| 2026-05-01 08:24 | 59.74893 | -160.52167 | 40435 ft | 510 kts | 75° |
| 2026-05-01 08:24 | 59.76957 | -160.38681 | 40456 ft | 510 kts | 76° |
| 2026-05-01 08:25 | 59.78994 | -160.25269 | 40455 ft | 510 kts | 76° |
| 2026-05-01 08:25 | 59.81031 | -160.11748 | 40470 ft | 510 kts | 76° |
| 2026-05-01 08:26 | 59.83057 | -159.98190 | 40477 ft | 510 kts | 76° |
| 2026-05-01 08:26 | 59.85066 | -159.84638 | 40485 ft | 510 kts | 76° |
| 2026-05-01 08:27 | 59.87046 | -159.71170 | 40489 ft | 510 kts | 76° |
| 2026-05-01 08:27 | 59.89027 | -159.57590 | 40503 ft | 511 kts | 76° |
| 2026-05-01 08:28 | 59.90997 | -159.43967 | 40498 ft | 511 kts | 76° |
| 2026-05-01 08:28 | 59.92952 | -159.30332 | 40491 ft | 511 kts | 77° |
| 2026-05-01 08:29 | 59.94880 | -159.16778 | 40510 ft | 510 kts | 77° |
| 2026-05-01 08:29 | 59.96809 | -159.03097 | 40524 ft | 510 kts | 77° |
| 2026-05-01 08:30 | 59.98707 | -158.89528 | 40522 ft | 510 kts | 77° |
| 2026-05-01 08:30 | 60.00606 | -158.75832 | 40532 ft | 510 kts | 77° |
| 2026-05-01 08:31 | 60.02491 | -158.62116 | 40538 ft | 510 kts | 77° |
| 2026-05-01 08:31 | 60.04349 | -158.48483 | 40538 ft | 510 kts | 77° |
| 2026-05-01 08:32 | 60.06205 | -158.34744 | 40546 ft | 510 kts | 77° |
| 2026-05-01 08:32 | 60.08035 | -158.21080 | 40532 ft | 510 kts | 78° |
| 2026-05-01 08:33 | 60.09862 | -158.07303 | 40547 ft | 511 kts | 78° |
| 2026-05-01 08:33 | 60.11680 | -157.93489 | 40569 ft | 512 kts | 78° |
| 2026-05-01 08:34 | 60.13486 | -157.79631 | 40579 ft | 513 kts | 78° |
| 2026-05-01 08:34 | 60.15267 | -157.65859 | 40566 ft | 513 kts | 78° |
| 2026-05-01 08:35 | 60.17044 | -157.51960 | 40582 ft | 513 kts | 78° |
| 2026-05-01 08:35 | 60.18806 | -157.38050 | 40569 ft | 513 kts | 79° |
| 2026-05-01 08:36 | 60.20544 | -157.24226 | 40592 ft | 513 kts | 78° |
| 2026-05-01 08:36 | 60.22281 | -157.10273 | 40595 ft | 513 kts | 80° |
| 2026-05-01 08:37 | 60.24003 | -156.96317 | 40601 ft | 514 kts | 78° |
| 2026-05-01 08:37 | 60.25696 | -156.82439 | 40620 ft | 513 kts | 80° |
| 2026-05-01 08:38 | 60.27385 | -156.68454 | 40623 ft | 513 kts | 79° |
| 2026-05-01 08:38 | 60.29057 | -156.54473 | 40622 ft | 512 kts | 79° |
| 2026-05-01 08:39 | 60.30719 | -156.40453 | 40637 ft | 513 kts | 79° |
| 2026-05-01 08:39 | 60.32359 | -156.26516 | 40648 ft | 514 kts | 80° |
| 2026-05-01 08:40 | 60.34806 | -156.05413 | 40647 ft | 514 kts | 79° |
| 2026-05-01 08:40 | 60.36405 | -155.91437 | 40667 ft | 513 kts | 79° |
| 2026-05-01 08:41 | 60.38002 | -155.77330 | 40663 ft | 513 kts | 80° |
| 2026-05-01 08:41 | 60.39578 | -155.63255 | 40662 ft | 513 kts | 80° |
| 2026-05-01 08:42 | 60.41138 | -155.49215 | 40674 ft | 514 kts | 79° |
| 2026-05-01 08:42 | 60.42693 | -155.35068 | 40674 ft | 514 kts | 80° |
| 2026-05-01 08:43 | 60.44231 | -155.20923 | 40690 ft | 514 kts | 80° |
| 2026-05-01 08:43 | 60.45742 | -155.06855 | 40676 ft | 514 kts | 80° |
| 2026-05-01 08:44 | 60.47250 | -154.92664 | 40656 ft | 513 kts | 81° |
| 2026-05-01 08:44 | 60.48737 | -154.78526 | 40686 ft | 512 kts | 80° |
| 2026-05-01 08:45 | 60.50428 | -154.64542 | 40695 ft | 514 kts | 75° |
| 2026-05-01 08:45 | 60.52591 | -154.50688 | 40701 ft | 514 kts | 74° |
| 2026-05-01 08:46 | 60.54816 | -154.36880 | 40704 ft | 514 kts | 74° |
| 2026-05-01 08:46 | 60.57019 | -154.23144 | 40706 ft | 514 kts | 74° |
| 2026-05-01 08:47 | 60.59215 | -154.09293 | 40736 ft | 514 kts | 75° |
| 2026-05-01 08:47 | 60.61395 | -153.95418 | 40739 ft | 514 kts | 75° |
| 2026-05-01 08:48 | 60.63549 | -153.81563 | 40788 ft | 512 kts | 75° |
| 2026-05-01 08:48 | 60.65682 | -153.67730 | 40811 ft | 512 kts | 75° |
| 2026-05-01 08:49 | 60.67807 | -153.53842 | 40805 ft | 512 kts | 75° |
| 2026-05-01 08:49 | 60.69564 | -153.42279 | 40851 ft | 512 kts | 75° |
| 2026-05-01 08:50 | 60.71647 | -153.28468 | 40861 ft | 512 kts | 75° |
| 2026-05-01 08:50 | 60.73734 | -153.14518 | 40859 ft | 512 kts | 76° |
| 2026-05-01 08:51 | 60.75796 | -153.00624 | 40892 ft | 513 kts | 75° |
| 2026-05-01 08:51 | 60.77851 | -152.86661 | 40906 ft | 512 kts | 76° |
| 2026-05-01 08:52 | 60.79884 | -152.72732 | 40924 ft | 512 kts | 76° |
| 2026-05-01 08:52 | 60.81912 | -152.58715 | 40936 ft | 512 kts | 76° |
| 2026-05-01 08:53 | 60.83926 | -152.44673 | 40935 ft | 512 kts | 76° |
| 2026-05-01 08:53 | 60.85913 | -152.30702 | 40943 ft | 512 kts | 76° |
| 2026-05-01 08:54 | 60.87899 | -152.16622 | 40951 ft | 513 kts | 76° |
| 2026-05-01 08:54 | 60.89856 | -152.02629 | 40966 ft | 512 kts | 76° |
| 2026-05-01 08:55 | 60.91810 | -151.88536 | 40974 ft | 512 kts | 76° |
| 2026-05-01 08:55 | 60.93738 | -151.74501 | 40974 ft | 512 kts | 76° |
| 2026-05-01 08:56 | 60.95660 | -151.60388 | 40958 ft | 512 kts | 77° |
| 2026-05-01 08:56 | 60.97568 | -151.46251 | 40944 ft | 512 kts | 77° |
| 2026-05-01 08:57 | 60.99450 | -151.32182 | 40944 ft | 512 kts | 77° |
| 2026-05-01 08:57 | 61.01332 | -151.17983 | 40918 ft | 514 kts | 77° |
| 2026-05-01 08:58 | 61.03205 | -151.03728 | 40934 ft | 513 kts | 77° |
| 2026-05-01 08:58 | 61.05046 | -150.89592 | 40936 ft | 513 kts | 77° |
| 2026-05-01 08:59 | 61.06889 | -150.75300 | 40958 ft | 513 kts | 77° |
| 2026-05-01 08:59 | 61.08700 | -150.61129 | 40954 ft | 513 kts | 77° |
| 2026-05-01 09:00 | 61.10506 | -150.46853 | 40961 ft | 513 kts | 77° |
| 2026-05-01 09:00 | 61.12298 | -150.32559 | 40986 ft | 513 kts | 77° |
| 2026-05-01 09:01 | 61.14079 | -150.18215 | 40985 ft | 513 kts | 77° |
| 2026-05-01 09:01 | 61.15832 | -150.03966 | 40977 ft | 513 kts | 78° |
| 2026-05-01 09:02 | 61.18298 | -149.90045 | 41007 ft | 515 kts | 66° |
| 2026-05-01 09:02 | 61.21423 | -149.76634 | 40999 ft | 516 kts | 65° |
| 2026-05-01 09:03 | 61.24629 | -149.63351 | 40994 ft | 517 kts | 65° |
| 2026-05-01 09:03 | 61.27835 | -149.50000 | 40992 ft | 517 kts | 65° |
| 2026-05-01 09:04 | 61.31023 | -149.36568 | 41023 ft | 516 kts | 65° |
| 2026-05-01 09:04 | 61.34168 | -149.23194 | 41025 ft | 516 kts | 65° |
| 2026-05-01 09:05 | 61.37318 | -149.09711 | 41025 ft | 517 kts | 66° |
| 2026-05-01 09:05 | 61.40466 | -148.96144 | 41044 ft | 518 kts | 66° |
| 2026-05-01 09:06 | 61.43582 | -148.82634 | 41070 ft | 517 kts | 66° |
| 2026-05-01 09:06 | 61.46683 | -148.69124 | 41067 ft | 516 kts | 66° |
| 2026-05-01 09:07 | 61.49774 | -148.55562 | 41095 ft | 515 kts | 66° |
| 2026-05-01 09:07 | 61.52853 | -148.41965 | 41093 ft | 515 kts | 66° |
| 2026-05-01 09:08 | 61.55901 | -148.28420 | 41096 ft | 515 kts | 66° |
| 2026-05-01 09:08 | 61.58945 | -148.14803 | 41123 ft | 515 kts | 66° |
| 2026-05-01 09:09 | 61.61984 | -148.01119 | 41124 ft | 516 kts | 66° |
| 2026-05-01 09:09 | 61.65007 | -147.87423 | 41110 ft | 515 kts | 67° |
| 2026-05-01 09:10 | 61.68000 | -147.73756 | 41118 ft | 519 kts | 67° |
| 2026-05-01 09:10 | 61.71013 | -147.59922 | 41135 ft | 520 kts | 67° |
| 2026-05-01 09:11 | 61.74023 | -147.46024 | 41109 ft | 520 kts | 67° |
| 2026-05-01 09:11 | 61.77020 | -147.32096 | 41106 ft | 519 kts | 67° |
| 2026-05-01 09:12 | 61.79973 | -147.18266 | 41089 ft | 518 kts | 67° |
| 2026-05-01 09:12 | 61.82928 | -147.04333 | 41104 ft | 518 kts | 67° |
| 2026-05-01 09:13 | 61.85853 | -146.90452 | 41102 ft | 518 kts | 67° |
| 2026-05-01 09:13 | 61.88776 | -146.76488 | 41096 ft | 518 kts | 67° |
| 2026-05-01 09:14 | 61.91670 | -146.62568 | 41107 ft | 518 kts | 67° |
| 2026-05-01 09:14 | 61.94566 | -146.48542 | 41117 ft | 518 kts | 67° |
| 2026-05-01 09:15 | 61.97444 | -146.34508 | 41117 ft | 517 kts | 67° |
| 2026-05-01 09:15 | 62.00309 | -146.20442 | 41113 ft | 517 kts | 67° |
| 2026-05-01 09:16 | 62.03141 | -146.06445 | 41111 ft | 517 kts | 67° |
| 2026-05-01 09:17 | 62.07395 | -145.85225 | 41079 ft | 519 kts | 68° |
| 2026-05-01 09:17 | 62.11617 | -145.63955 | 41044 ft | 520 kts | 68° |
| 2026-05-01 09:18 | 62.15810 | -145.42624 | 41045 ft | 520 kts | 68° |
| 2026-05-01 09:19 | 62.20734 | -145.21888 | 41109 ft | 519 kts | 62° |
| 2026-05-01 09:20 | 62.25830 | -145.01387 | 41101 ft | 520 kts | 63° |
| 2026-05-01 09:21 | 62.32416 | -144.73699 | 41097 ft | 522 kts | 64° |
| 2026-05-01 09:21 | 62.37327 | -144.52722 | 41075 ft | 521 kts | 64° |
| 2026-05-01 09:22 | 62.43739 | -144.25060 | 41085 ft | 514 kts | 64° |
| 2026-05-01 09:23 | 62.48494 | -144.04321 | 41087 ft | 513 kts | 64° |
| 2026-05-01 09:24 | 62.53225 | -143.83482 | 41049 ft | 514 kts | 64° |
| 2026-05-01 09:25 | 62.59503 | -143.55512 | 41063 ft | 517 kts | 64° |
| 2026-05-01 09:26 | 62.64178 | -143.34446 | 41060 ft | 517 kts | 65° |
| 2026-05-01 09:26 | 62.68840 | -143.13222 | 41050 ft | 518 kts | 65° |
| 2026-05-01 09:27 | 62.73485 | -142.91864 | 41048 ft | 522 kts | 65° |
| 2026-05-01 09:28 | 62.76563 | -142.77593 | 41038 ft | 522 kts | 65° |
| 2026-05-01 09:28 | 62.79643 | -142.63210 | 41037 ft | 522 kts | 65° |
| 2026-05-01 09:29 | 62.84238 | -142.41572 | 41002 ft | 522 kts | 65° |
| 2026-05-01 09:30 | 62.88753 | -142.20088 | 41031 ft | 516 kts | 65° |
| 2026-05-01 09:30 | 62.93187 | -141.98656 | 41027 ft | 515 kts | 67° |
| 2026-05-01 09:31 | 62.94929 | -141.83412 | 41036 ft | 515 kts | 83° |
| 2026-05-01 09:32 | 62.95846 | -141.59937 | 41031 ft | 515 kts | 86° |
| 2026-05-01 09:32 | 62.96527 | -141.36356 | 41020 ft | 514 kts | 87° |
| 2026-05-01 09:33 | 62.96982 | -141.20733 | 41017 ft | 514 kts | 87° |
| 2026-05-01 09:34 | 62.97655 | -140.97164 | 41021 ft | 512 kts | 87° |
| 2026-05-01 09:34 | 62.98284 | -140.73838 | 41020 ft | 511 kts | 88° |
| 2026-05-01 09:35 | 62.98810 | -140.53045 | 41024 ft | 511 kts | 88° |
| 2026-05-01 09:36 | 62.99245 | -140.34846 | 41023 ft | 511 kts | 88° |
| 2026-05-01 09:36 | 62.99542 | -140.21848 | 41026 ft | 511 kts | 88° |
| 2026-05-01 09:37 | 62.99883 | -140.06221 | 41024 ft | 511 kts | 88° |
| 2026-05-01 09:37 | 63.00526 | -139.82742 | 41025 ft | 514 kts | 86° |
| 2026-05-01 09:38 | 63.01382 | -139.59152 | 41026 ft | 514 kts | 86° |
| 2026-05-01 09:39 | 63.02147 | -139.35639 | 41032 ft | 515 kts | 86° |
| 2026-05-01 09:39 | 63.02622 | -139.19872 | 41027 ft | 519 kts | 87° |
| 2026-05-01 09:40 | 63.03309 | -138.95965 | 41028 ft | 519 kts | 87° |
| 2026-05-01 09:41 | 63.03742 | -138.80169 | 41031 ft | 519 kts | 87° |
| 2026-05-01 09:41 | 63.04362 | -138.56343 | 41025 ft | 519 kts | 87° |
| 2026-05-01 09:42 | 63.04751 | -138.40531 | 41024 ft | 519 kts | 87° |
| 2026-05-01 09:43 | 63.05479 | -138.08765 | 41017 ft | 516 kts | 87° |
| 2026-05-01 09:43 | 63.05813 | -137.93021 | 41017 ft | 516 kts | 88° |
| 2026-05-01 09:44 | 63.06284 | -137.69252 | 41038 ft | 516 kts | 88° |
| 2026-05-01 09:45 | 63.06575 | -137.53479 | 41039 ft | 516 kts | 88° |
| 2026-05-01 09:45 | 63.06980 | -137.29698 | 41065 ft | 516 kts | 88° |
| 2026-05-01 09:46 | 63.07228 | -137.13837 | 41053 ft | 518 kts | 88° |
| 2026-05-01 09:46 | 63.07458 | -136.98012 | 41053 ft | 519 kts | 88° |
| 2026-05-01 09:47 | 63.07671 | -136.82082 | 41066 ft | 518 kts | 89° |
| 2026-05-01 09:47 | 63.07866 | -136.66254 | 41066 ft | 518 kts | 89° |
| 2026-05-01 09:48 | 63.08043 | -136.50313 | 41074 ft | 518 kts | 89° |
| 2026-05-01 09:48 | 63.08203 | -136.34388 | 41080 ft | 518 kts | 89° |
| 2026-05-01 09:49 | 63.08344 | -136.18566 | 41083 ft | 518 kts | 89° |
| 2026-05-01 09:49 | 63.08468 | -136.02594 | 41087 ft | 519 kts | 89° |
| 2026-05-01 09:50 | 63.08574 | -135.86727 | 41072 ft | 519 kts | 89° |
| 2026-05-01 09:50 | 63.08663 | -135.70791 | 41090 ft | 518 kts | 89° |
| 2026-05-01 09:51 | 63.08734 | -135.54851 | 41083 ft | 518 kts | 90° |
| 2026-05-01 09:51 | 63.08786 | -135.39027 | 41085 ft | 518 kts | 90° |
| 2026-05-01 09:52 | 63.08821 | -135.23073 | 41086 ft | 518 kts | 90° |
| 2026-05-01 09:52 | 63.08837 | -135.07143 | 41085 ft | 518 kts | 90° |
| 2026-05-01 09:53 | 63.08836 | -134.91296 | 41084 ft | 519 kts | 90° |
| 2026-05-01 09:53 | 63.08818 | -134.75329 | 41083 ft | 519 kts | 90° |
| 2026-05-01 09:54 | 63.08781 | -134.59450 | 41081 ft | 519 kts | 90° |
| 2026-05-01 09:54 | 63.08726 | -134.43502 | 41084 ft | 519 kts | 91° |
| 2026-05-01 09:55 | 63.08654 | -134.27627 | 41084 ft | 519 kts | 91° |
| 2026-05-01 09:55 | 63.08564 | -134.11638 | 41081 ft | 519 kts | 91° |
| 2026-05-01 09:56 | 63.08456 | -133.95791 | 41086 ft | 520 kts | 91° |
| 2026-05-01 09:56 | 63.08330 | -133.79802 | 41082 ft | 520 kts | 91° |
| 2026-05-01 09:57 | 63.08186 | -133.63844 | 41087 ft | 519 kts | 91° |
| 2026-05-01 09:57 | 63.08025 | -133.47990 | 41079 ft | 519 kts | 91° |
| 2026-05-01 09:58 | 63.07844 | -133.32019 | 41083 ft | 519 kts | 92° |
| 2026-05-01 09:58 | 63.07648 | -133.16156 | 41083 ft | 519 kts | 92° |
| 2026-05-01 09:59 | 63.07432 | -133.00227 | 41089 ft | 519 kts | 92° |
| 2026-05-01 09:59 | 63.07200 | -132.84339 | 41086 ft | 520 kts | 92° |
| 2026-05-01 10:00 | 63.06948 | -132.68369 | 41074 ft | 520 kts | 92° |
| 2026-05-01 10:00 | 63.06678 | -132.52426 | 41081 ft | 520 kts | 92° |
| 2026-05-01 10:01 | 63.06392 | -132.36546 | 41082 ft | 520 kts | 92° |
| 2026-05-01 10:01 | 63.06086 | -132.20561 | 41087 ft | 520 kts | 92° |
| 2026-05-01 10:02 | 63.05764 | -132.04667 | 41086 ft | 520 kts | 93° |
| 2026-05-01 10:02 | 63.05422 | -131.88716 | 41083 ft | 520 kts | 93° |
| 2026-05-01 10:03 | 63.05065 | -131.72858 | 41084 ft | 521 kts | 93° |
| 2026-05-01 10:03 | 63.04688 | -131.56899 | 41078 ft | 521 kts | 93° |
| 2026-05-01 10:04 | 63.04291 | -131.40926 | 41089 ft | 521 kts | 93° |
| 2026-05-01 10:04 | 63.03880 | -131.25089 | 41084 ft | 521 kts | 94° |
| 2026-05-01 10:05 | 63.03449 | -131.09133 | 41082 ft | 521 kts | 94° |
| 2026-05-01 10:05 | 63.02999 | -130.93169 | 41083 ft | 520 kts | 94° |
| 2026-05-01 10:06 | 63.02534 | -130.77301 | 41084 ft | 521 kts | 94° |
| 2026-05-01 10:06 | 63.02048 | -130.61350 | 41083 ft | 521 kts | 94° |
| 2026-05-01 10:07 | 63.01548 | -130.45517 | 41079 ft | 520 kts | 94° |
| 2026-05-01 10:07 | 63.01028 | -130.29608 | 41083 ft | 520 kts | 95° |
| 2026-05-01 10:08 | 63.00219 | -130.05878 | 41081 ft | 519 kts | 95° |
| 2026-05-01 10:09 | 62.99562 | -129.90015 | 41081 ft | 519 kts | 98° |
| 2026-05-01 10:09 | 62.98528 | -129.74360 | 41078 ft | 519 kts | 99° |
| 2026-05-01 10:10 | 62.97423 | -129.58602 | 41074 ft | 519 kts | 99° |
| 2026-05-01 10:10 | 62.95837 | -129.35078 | 41077 ft | 519 kts | 99° |
| 2026-05-01 10:11 | 62.94789 | -129.19438 | 41076 ft | 519 kts | 99° |
| 2026-05-01 10:11 | 62.93720 | -129.03734 | 41073 ft | 519 kts | 99° |
| 2026-05-01 10:12 | 62.92814 | -128.90661 | 41070 ft | 519 kts | 99° |
| 2026-05-01 10:13 | 62.90969 | -128.64602 | 41071 ft | 519 kts | 99° |
| 2026-05-01 10:13 | 62.89834 | -128.48919 | 41062 ft | 519 kts | 100° |
| 2026-05-01 10:14 | 62.88108 | -128.25540 | 41063 ft | 518 kts | 100° |
| 2026-05-01 10:14 | 62.86939 | -128.10004 | 41063 ft | 518 kts | 100° |
| 2026-05-01 10:15 | 62.85748 | -127.94430 | 41064 ft | 518 kts | 100° |
| 2026-05-01 10:15 | 62.84545 | -127.78928 | 41062 ft | 518 kts | 101° |
| 2026-05-01 10:16 | 62.83317 | -127.63335 | 41060 ft | 518 kts | 101° |
| 2026-05-01 10:17 | 62.81445 | -127.40005 | 41053 ft | 523 kts | 101° |
| 2026-05-01 10:17 | 62.79513 | -127.16445 | 41048 ft | 523 kts | 101° |
| 2026-05-01 10:18 | 62.77548 | -126.92982 | 41024 ft | 524 kts | 101° |
| 2026-05-01 10:19 | 62.76213 | -126.77332 | 41028 ft | 523 kts | 102° |
| 2026-05-01 10:19 | 62.74868 | -126.61775 | 41006 ft | 524 kts | 102° |
| 2026-05-01 10:20 | 62.72826 | -126.38554 | 41014 ft | 521 kts | 102° |
| 2026-05-01 10:20 | 62.71434 | -126.22981 | 41008 ft | 522 kts | 102° |
| 2026-05-01 10:21 | 62.69316 | -125.99675 | 40990 ft | 523 kts | 102° |
| 2026-05-01 10:22 | 62.67165 | -125.76472 | 40980 ft | 522 kts | 103° |
| 2026-05-01 10:23 | 62.64971 | -125.53248 | 40970 ft | 521 kts | 103° |
| 2026-05-01 10:23 | 62.62755 | -125.30224 | 40957 ft | 521 kts | 103° |
| 2026-05-01 10:24 | 62.59991 | -125.02089 | 40936 ft | 520 kts | 103° |
| 2026-05-01 10:25 | 62.56908 | -124.71433 | 40932 ft | 520 kts | 103° |
| 2026-05-01 10:26 | 62.55340 | -124.56104 | 40916 ft | 519 kts | 104° |
| 2026-05-01 10:27 | 62.52171 | -124.25667 | 40910 ft | 521 kts | 104° |
| 2026-05-01 10:28 | 62.49723 | -124.02639 | 40909 ft | 521 kts | 104° |
| 2026-05-01 10:28 | 62.47248 | -123.79734 | 40885 ft | 524 kts | 105° |
| 2026-05-01 10:29 | 62.44730 | -123.56812 | 40888 ft | 520 kts | 105° |
| 2026-05-01 10:30 | 62.41339 | -123.26536 | 40916 ft | 519 kts | 105° |
| 2026-05-01 10:31 | 62.37880 | -122.96310 | 40902 ft | 520 kts | 105° |
| 2026-05-01 10:32 | 62.35233 | -122.73607 | 40881 ft | 522 kts | 105° |
| 2026-05-01 10:33 | 62.31639 | -122.43328 | 40862 ft | 523 kts | 105° |
| 2026-05-01 10:34 | 62.28886 | -122.20553 | 40859 ft | 523 kts | 105° |
| 2026-05-01 10:34 | 62.27048 | -122.05539 | 40838 ft | 522 kts | 105° |
| 2026-05-01 10:35 | 62.24245 | -121.82920 | 40834 ft | 520 kts | 106° |
| 2026-05-01 10:35 | 62.22369 | -121.67967 | 40832 ft | 517 kts | 106° |
| 2026-05-01 10:36 | 62.19542 | -121.45717 | 40832 ft | 517 kts | 106° |
| 2026-05-01 10:37 | 62.17632 | -121.30865 | 40826 ft | 516 kts | 107° |
| 2026-05-01 10:37 | 62.14748 | -121.08699 | 40830 ft | 517 kts | 107° |
| 2026-05-01 10:38 | 62.12796 | -120.93872 | 40811 ft | 518 kts | 107° |
| 2026-05-01 10:38 | 62.10834 | -120.79110 | 40826 ft | 519 kts | 107° |
| 2026-05-01 10:39 | 62.08839 | -120.64237 | 40827 ft | 520 kts | 107° |
| 2026-05-01 10:39 | 62.06841 | -120.49477 | 40821 ft | 520 kts | 107° |
| 2026-05-01 10:40 | 62.04815 | -120.34647 | 40821 ft | 520 kts | 107° |
| 2026-05-01 10:40 | 62.02783 | -120.19911 | 40815 ft | 520 kts | 108° |
| 2026-05-01 10:41 | 62.00717 | -120.05113 | 40794 ft | 519 kts | 108° |
| 2026-05-01 10:42 | 61.96300 | -119.84294 | 40809 ft | 515 kts | 118° |
| 2026-05-01 10:42 | 61.93021 | -119.70731 | 40813 ft | 515 kts | 119° |
| 2026-05-01 10:43 | 61.89716 | -119.57222 | 40807 ft | 515 kts | 119° |
| 2026-05-01 10:43 | 61.86432 | -119.43814 | 40807 ft | 515 kts | 119° |
| 2026-05-01 10:44 | 61.83124 | -119.30338 | 40772 ft | 515 kts | 119° |
| 2026-05-01 10:44 | 61.79801 | -119.16876 | 40790 ft | 515 kts | 119° |
| 2026-05-01 10:45 | 61.76483 | -119.03520 | 40793 ft | 515 kts | 119° |
| 2026-05-01 10:45 | 61.73137 | -118.90134 | 40791 ft | 515 kts | 119° |
| 2026-05-01 10:46 | 61.69778 | -118.76776 | 40785 ft | 515 kts | 120° |
| 2026-05-01 10:46 | 61.66428 | -118.63536 | 40785 ft | 515 kts | 120° |
| 2026-05-01 10:47 | 61.63041 | -118.50228 | 40785 ft | 515 kts | 120° |
| 2026-05-01 10:47 | 61.59661 | -118.37027 | 40782 ft | 515 kts | 120° |
| 2026-05-01 10:48 | 61.56250 | -118.23784 | 40782 ft | 515 kts | 120° |
| 2026-05-01 10:48 | 61.52844 | -118.10639 | 40779 ft | 515 kts | 120° |
| 2026-05-01 10:49 | 61.49404 | -117.97443 | 40779 ft | 515 kts | 120° |
| 2026-05-01 10:49 | 61.45977 | -117.84370 | 40783 ft | 514 kts | 121° |
| 2026-05-01 10:50 | 61.42516 | -117.71249 | 40785 ft | 514 kts | 121° |
| 2026-05-01 10:50 | 61.39042 | -117.58151 | 40789 ft | 515 kts | 121° |
| 2026-05-01 10:51 | 61.35577 | -117.45167 | 40787 ft | 515 kts | 121° |
| 2026-05-01 10:51 | 61.32072 | -117.32106 | 40786 ft | 515 kts | 121° |
| 2026-05-01 10:52 | 61.28581 | -117.19170 | 40783 ft | 515 kts | 121° |
| 2026-05-01 10:52 | 61.25053 | -117.06178 | 40797 ft | 514 kts | 121° |
| 2026-05-01 10:53 | 61.21519 | -116.93233 | 40796 ft | 514 kts | 121° |
| 2026-05-01 10:53 | 61.17998 | -116.80414 | 40798 ft | 514 kts | 122° |
| 2026-05-01 10:54 | 61.14434 | -116.67510 | 40798 ft | 514 kts | 122° |
| 2026-05-01 10:54 | 61.10882 | -116.54721 | 40798 ft | 514 kts | 122° |
| 2026-05-01 10:55 | 61.07305 | -116.41915 | 40806 ft | 512 kts | 122° |
| 2026-05-01 10:55 | 61.03729 | -116.29184 | 40811 ft | 512 kts | 122° |
| 2026-05-01 10:56 | 61.00162 | -116.16555 | 40809 ft | 512 kts | 122° |
| 2026-05-01 10:56 | 60.96561 | -116.03879 | 40806 ft | 512 kts | 122° |
| 2026-05-01 10:57 | 60.92942 | -115.91210 | 40786 ft | 512 kts | 122° |
| 2026-05-01 10:57 | 60.89341 | -115.78672 | 40799 ft | 512 kts | 123° |
| 2026-05-01 10:58 | 60.85709 | -115.66095 | 40811 ft | 511 kts | 123° |
| 2026-05-01 10:58 | 60.82064 | -115.53544 | 40811 ft | 511 kts | 123° |
| 2026-05-01 10:59 | 60.78412 | -115.41037 | 40825 ft | 511 kts | 123° |
| 2026-05-01 10:59 | 60.74743 | -115.28540 | 40829 ft | 512 kts | 123° |
| 2026-05-01 11:00 | 60.71084 | -115.16147 | 40837 ft | 512 kts | 123° |
| 2026-05-01 11:00 | 60.67387 | -115.03689 | 40834 ft | 512 kts | 123° |
| 2026-05-01 11:01 | 60.63677 | -114.91257 | 40840 ft | 512 kts | 123° |
| 2026-05-01 11:01 | 60.59982 | -114.78941 | 40836 ft | 512 kts | 123° |
| 2026-05-01 11:02 | 60.56251 | -114.66571 | 40841 ft | 512 kts | 124° |
| 2026-05-01 11:02 | 60.52511 | -114.54240 | 40835 ft | 512 kts | 124° |
| 2026-05-01 11:03 | 60.48773 | -114.41977 | 40851 ft | 513 kts | 124° |
| 2026-05-01 11:03 | 60.45009 | -114.29697 | 40857 ft | 513 kts | 124° |
| 2026-05-01 11:04 | 60.41246 | -114.17484 | 40852 ft | 513 kts | 124° |
| 2026-05-01 11:04 | 60.37446 | -114.05218 | 40851 ft | 513 kts | 124° |
| 2026-05-01 11:05 | 60.33635 | -113.92979 | 40855 ft | 514 kts | 124° |
| 2026-05-01 11:05 | 60.29832 | -113.80831 | 40862 ft | 514 kts | 124° |
| 2026-05-01 11:06 | 60.26017 | -113.68708 | 40867 ft | 514 kts | 124° |
| 2026-05-01 11:06 | 60.22170 | -113.56546 | 40870 ft | 514 kts | 124° |
| 2026-05-01 11:07 | 60.16409 | -113.38454 | 40875 ft | 514 kts | 125° |
| 2026-05-01 11:07 | 60.12527 | -113.26341 | 40878 ft | 514 kts | 125° |
| 2026-05-01 11:08 | 60.08663 | -113.14349 | 40884 ft | 514 kts | 125° |
| 2026-05-01 11:09 | 60.02829 | -112.96356 | 40895 ft | 514 kts | 125° |
| 2026-05-01 11:09 | 59.98918 | -112.84369 | 40895 ft | 514 kts | 125° |
| 2026-05-01 11:10 | 59.93030 | -112.66442 | 40894 ft | 514 kts | 125° |
| 2026-05-01 11:10 | 59.89089 | -112.54519 | 40889 ft | 514 kts | 125° |
| 2026-05-01 11:11 | 59.85160 | -112.42693 | 40890 ft | 514 kts | 125° |
| 2026-05-01 11:11 | 59.81864 | -112.32817 | 40897 ft | 514 kts | 126° |
| 2026-05-01 11:12 | 59.77256 | -112.19079 | 40901 ft | 514 kts | 126° |
| 2026-05-01 11:12 | 59.73944 | -112.09257 | 40902 ft | 514 kts | 126° |
| 2026-05-01 11:13 | 59.69291 | -111.95526 | 40907 ft | 515 kts | 126° |
| 2026-05-01 11:13 | 59.65955 | -111.85729 | 40912 ft | 515 kts | 126° |
| 2026-05-01 11:14 | 59.61936 | -111.73980 | 40913 ft | 515 kts | 126° |
| 2026-05-01 11:14 | 59.57904 | -111.62255 | 40915 ft | 515 kts | 126° |
| 2026-05-01 11:15 | 59.53889 | -111.50634 | 40911 ft | 515 kts | 126° |
| 2026-05-01 11:15 | 59.49833 | -111.38956 | 40920 ft | 515 kts | 126° |
| 2026-05-01 11:16 | 59.45764 | -111.27294 | 40935 ft | 515 kts | 126° |
| 2026-05-01 11:16 | 59.41720 | -111.15763 | 40938 ft | 515 kts | 126° |
| 2026-05-01 11:17 | 59.37624 | -111.04143 | 40937 ft | 516 kts | 126° |
| 2026-05-01 11:17 | 59.33548 | -110.92636 | 40943 ft | 516 kts | 126° |
| 2026-05-01 11:18 | 59.29430 | -110.81067 | 40947 ft | 516 kts | 126° |
| 2026-05-01 11:18 | 59.25341 | -110.69633 | 40960 ft | 516 kts | 126° |
| 2026-05-01 11:19 | 59.21211 | -110.58143 | 40963 ft | 516 kts | 127° |
| 2026-05-01 11:19 | 59.17067 | -110.46669 | 40965 ft | 516 kts | 127° |
| 2026-05-01 11:20 | 59.12915 | -110.35227 | 40968 ft | 516 kts | 127° |
| 2026-05-01 11:20 | 59.08776 | -110.23878 | 40974 ft | 516 kts | 127° |
| 2026-05-01 11:21 | 59.04606 | -110.12500 | 40979 ft | 517 kts | 127° |
| 2026-05-01 11:21 | 59.00455 | -110.01057 | 40969 ft | 518 kts | 123° |
| 2026-05-01 11:22 | 58.96870 | -109.88995 | 40983 ft | 519 kts | 120° |
| 2026-05-01 11:22 | 58.93384 | -109.76697 | 40977 ft | 519 kts | 119° |
| 2026-05-01 11:23 | 58.89927 | -109.64468 | 40988 ft | 519 kts | 119° |
| 2026-05-01 11:23 | 58.86431 | -109.52210 | 40998 ft | 519 kts | 119° |
| 2026-05-01 11:24 | 58.82938 | -109.40063 | 40998 ft | 519 kts | 120° |
| 2026-05-01 11:25 | 58.77647 | -109.21801 | 41011 ft | 519 kts | 120° |
| 2026-05-01 11:25 | 58.72337 | -109.03616 | 41007 ft | 520 kts | 119° |
| 2026-05-01 11:26 | 58.66987 | -108.85434 | 41014 ft | 520 kts | 120° |
| 2026-05-01 11:27 | 58.63419 | -108.73386 | 41015 ft | 520 kts | 120° |
| 2026-05-01 11:27 | 58.59822 | -108.61302 | 41015 ft | 520 kts | 120° |
| 2026-05-01 11:28 | 58.56215 | -108.49250 | 41026 ft | 520 kts | 120° |
| 2026-05-01 11:28 | 58.52615 | -108.37285 | 41025 ft | 520 kts | 120° |
| 2026-05-01 11:29 | 58.47185 | -108.19350 | 41032 ft | 520 kts | 120° |
| 2026-05-01 11:30 | 58.41715 | -108.01418 | 41034 ft | 520 kts | 120° |
| 2026-05-01 11:30 | 58.38079 | -107.89577 | 41037 ft | 520 kts | 120° |
| 2026-05-01 11:31 | 58.34403 | -107.77668 | 41041 ft | 520 kts | 120° |
| 2026-05-01 11:31 | 58.30725 | -107.65812 | 41045 ft | 520 kts | 120° |
| 2026-05-01 11:32 | 58.27039 | -107.53988 | 41055 ft | 520 kts | 120° |
| 2026-05-01 11:32 | 58.23362 | -107.42253 | 41051 ft | 519 kts | 120° |
| 2026-05-01 11:33 | 58.19651 | -107.30468 | 41056 ft | 519 kts | 120° |
| 2026-05-01 11:33 | 58.15928 | -107.18701 | 41059 ft | 519 kts | 120° |
| 2026-05-01 11:34 | 58.12222 | -107.07049 | 41059 ft | 519 kts | 120° |
| 2026-05-01 11:34 | 58.08476 | -106.95332 | 41065 ft | 519 kts | 120° |
| 2026-05-01 11:35 | 58.04726 | -106.83657 | 41064 ft | 519 kts | 120° |
| 2026-05-01 11:35 | 58.00966 | -106.72011 | 41075 ft | 519 kts | 120° |
| 2026-05-01 11:36 | 57.97211 | -106.60436 | 41067 ft | 519 kts | 120° |
| 2026-05-01 11:36 | 57.93424 | -106.48821 | 41063 ft | 519 kts | 120° |
| 2026-05-01 11:37 | 57.89658 | -106.37322 | 41064 ft | 519 kts | 120° |
| 2026-05-01 11:37 | 57.85846 | -106.25742 | 41067 ft | 519 kts | 120° |
| 2026-05-01 11:38 | 57.82052 | -106.14274 | 41066 ft | 519 kts | 120° |
| 2026-05-01 11:38 | 57.78225 | -106.02759 | 41069 ft | 519 kts | 120° |
| 2026-05-01 11:39 | 57.74414 | -105.91353 | 41080 ft | 519 kts | 120° |
| 2026-05-01 11:39 | 57.70577 | -105.79922 | 41073 ft | 517 kts | 120° |
| 2026-05-01 11:40 | 57.66764 | -105.68613 | 41073 ft | 517 kts | 120° |
| 2026-05-01 11:40 | 57.62913 | -105.57248 | 41080 ft | 517 kts | 121° |
| 2026-05-01 11:41 | 57.59076 | -105.45976 | 41086 ft | 517 kts | 121° |
| 2026-05-01 11:41 | 57.55201 | -105.34647 | 41083 ft | 517 kts | 121° |
| 2026-05-01 11:42 | 57.51345 | -105.23430 | 41094 ft | 516 kts | 121° |
| 2026-05-01 11:42 | 57.47460 | -105.12179 | 41110 ft | 515 kts | 120° |
| 2026-05-01 11:43 | 57.43573 | -105.00975 | 41100 ft | 514 kts | 121° |
| 2026-05-01 11:43 | 57.39705 | -104.89877 | 41104 ft | 515 kts | 121° |
| 2026-05-01 11:44 | 57.33849 | -104.73174 | 41103 ft | 514 kts | 121° |
| 2026-05-01 11:44 | 57.29960 | -104.62144 | 41122 ft | 514 kts | 121° |
| 2026-05-01 11:45 | 57.26038 | -104.51073 | 41125 ft | 514 kts | 121° |
| 2026-05-01 11:45 | 57.22104 | -104.40016 | 41108 ft | 514 kts | 121° |
| 2026-05-01 11:46 | 57.18183 | -104.29052 | 41127 ft | 513 kts | 121° |
| 2026-05-01 11:46 | 57.14233 | -104.18051 | 41130 ft | 513 kts | 121° |
| 2026-05-01 11:47 | 57.10302 | -104.07157 | 41138 ft | 513 kts | 121° |
| 2026-05-01 11:47 | 57.06345 | -103.96240 | 41135 ft | 512 kts | 121° |
| 2026-05-01 11:48 | 57.02375 | -103.85332 | 41137 ft | 512 kts | 121° |
| 2026-05-01 11:48 | 56.98423 | -103.74525 | 41142 ft | 512 kts | 121° |
| 2026-05-01 11:49 | 56.94434 | -103.63668 | 41149 ft | 512 kts | 121° |
| 2026-05-01 11:49 | 56.90467 | -103.52915 | 41150 ft | 511 kts | 121° |
| 2026-05-01 11:50 | 56.86468 | -103.42126 | 41153 ft | 510 kts | 121° |
| 2026-05-01 11:50 | 56.82469 | -103.31386 | 41152 ft | 510 kts | 122° |
| 2026-05-01 11:51 | 56.78490 | -103.20747 | 41152 ft | 510 kts | 122° |
| 2026-05-01 11:51 | 56.74480 | -103.10070 | 41159 ft | 510 kts | 122° |
| 2026-05-01 11:52 | 56.70454 | -102.99397 | 41159 ft | 510 kts | 122° |
| 2026-05-01 11:52 | 56.66443 | -102.88812 | 41157 ft | 510 kts | 122° |
| 2026-05-01 11:53 | 56.62404 | -102.78198 | 41162 ft | 509 kts | 122° |
| 2026-05-01 11:53 | 56.58364 | -102.67628 | 41164 ft | 509 kts | 122° |
| 2026-05-01 11:54 | 56.54327 | -102.57114 | 41165 ft | 509 kts | 122° |
| 2026-05-01 11:54 | 56.50270 | -102.46592 | 41167 ft | 509 kts | 122° |
| 2026-05-01 11:55 | 56.46219 | -102.36130 | 41167 ft | 509 kts | 122° |
| 2026-05-01 11:55 | 56.42145 | -102.25657 | 41174 ft | 509 kts | 122° |
| 2026-05-01 11:56 | 56.38060 | -102.15197 | 41194 ft | 509 kts | 122° |
| 2026-05-01 11:56 | 56.33986 | -102.04811 | 41167 ft | 509 kts | 123° |
| 2026-05-01 11:57 | 56.30578 | -101.96157 | 41177 ft | 509 kts | 123° |
| 2026-05-01 11:57 | 56.25802 | -101.84080 | 41176 ft | 509 kts | 123° |
| 2026-05-01 11:58 | 56.21679 | -101.73704 | 41176 ft | 508 kts | 123° |
| 2026-05-01 11:59 | 56.15518 | -101.58277 | 41178 ft | 508 kts | 123° |
| 2026-05-01 11:59 | 56.11376 | -101.47962 | 41177 ft | 509 kts | 123° |
| 2026-05-01 12:00 | 56.05170 | -101.32589 | 41192 ft | 509 kts | 123° |
| 2026-05-01 12:01 | 55.98918 | -101.17197 | 41180 ft | 509 kts | 123° |
| 2026-05-01 12:01 | 55.95447 | -101.08692 | 41180 ft | 509 kts | 123° |
| 2026-05-01 12:02 | 55.90587 | -100.96838 | 41183 ft | 509 kts | 123° |
| 2026-05-01 12:02 | 55.87071 | -100.88294 | 41189 ft | 509 kts | 123° |
| 2026-05-01 12:03 | 55.82898 | -100.78195 | 41194 ft | 509 kts | 123° |
| 2026-05-01 12:03 | 55.78678 | -100.68024 | 41190 ft | 509 kts | 123° |
| 2026-05-01 12:04 | 55.74488 | -100.57968 | 41190 ft | 509 kts | 124° |
| 2026-05-01 12:04 | 55.70259 | -100.47858 | 41191 ft | 509 kts | 124° |
| 2026-05-01 12:05 | 55.66022 | -100.37771 | 41191 ft | 509 kts | 124° |
| 2026-05-01 12:05 | 55.59681 | -100.22752 | 41196 ft | 509 kts | 124° |
| 2026-05-01 12:06 | 55.55426 | -100.12728 | 41198 ft | 509 kts | 124° |
| 2026-05-01 12:06 | 55.51159 | -100.02713 | 41216 ft | 509 kts | 124° |
| 2026-05-01 12:07 | 55.46958 | -99.92740 | 41205 ft | 509 kts | 123° |
| 2026-05-01 12:07 | 55.42839 | -99.82571 | 41207 ft | 509 kts | 122° |
| 2026-05-01 12:08 | 55.38742 | -99.72468 | 41215 ft | 509 kts | 123° |
| 2026-05-01 12:08 | 55.34594 | -99.62348 | 41216 ft | 509 kts | 123° |
| 2026-05-01 12:09 | 55.30455 | -99.52330 | 41222 ft | 509 kts | 123° |
| 2026-05-01 12:09 | 55.26288 | -99.42289 | 41223 ft | 509 kts | 123° |
| 2026-05-01 12:10 | 55.20011 | -99.27241 | 41228 ft | 508 kts | 123° |
| 2026-05-01 12:11 | 55.13751 | -99.12319 | 41230 ft | 508 kts | 123° |
| 2026-05-01 12:11 | 55.09549 | -99.02355 | 41227 ft | 508 kts | 123° |
| 2026-05-01 12:12 | 55.05369 | -98.92480 | 41227 ft | 508 kts | 124° |
| 2026-05-01 12:12 | 55.01149 | -98.82552 | 41227 ft | 508 kts | 124° |
| 2026-05-01 12:13 | 54.96939 | -98.72688 | 41237 ft | 508 kts | 124° |
| 2026-05-01 12:13 | 54.92710 | -98.62818 | 41227 ft | 508 kts | 124° |
| 2026-05-01 12:14 | 54.88508 | -98.53051 | 41227 ft | 508 kts | 124° |
| 2026-05-01 12:14 | 54.84262 | -98.43219 | 41230 ft | 507 kts | 124° |
| 2026-05-01 12:15 | 54.80012 | -98.33419 | 41230 ft | 508 kts | 124° |
| 2026-05-01 12:15 | 54.75773 | -98.23682 | 41232 ft | 508 kts | 124° |
| 2026-05-01 12:16 | 54.71512 | -98.13932 | 41233 ft | 508 kts | 124° |
| 2026-05-01 12:16 | 54.67265 | -98.04252 | 41236 ft | 507 kts | 125° |
| 2026-05-01 12:17 | 54.62989 | -97.94544 | 41240 ft | 507 kts | 125° |
| 2026-05-01 12:17 | 54.58726 | -97.84905 | 41241 ft | 507 kts | 125° |
| 2026-05-01 12:18 | 54.54430 | -97.75227 | 41241 ft | 507 kts | 125° |
| 2026-05-01 12:18 | 54.50120 | -97.65557 | 41247 ft | 507 kts | 125° |
| 2026-05-01 12:19 | 54.45837 | -97.55984 | 41243 ft | 507 kts | 125° |
| 2026-05-01 12:19 | 54.41516 | -97.46362 | 41252 ft | 507 kts | 125° |
| 2026-05-01 12:20 | 54.37209 | -97.36810 | 41241 ft | 507 kts | 126° |
| 2026-05-01 12:20 | 54.32879 | -97.27243 | 41247 ft | 507 kts | 126° |
| 2026-05-01 12:21 | 54.28570 | -97.17760 | 41243 ft | 507 kts | 126° |
| 2026-05-01 12:21 | 54.24222 | -97.08228 | 41242 ft | 507 kts | 126° |
| 2026-05-01 12:22 | 54.19893 | -96.98774 | 41240 ft | 507 kts | 126° |
| 2026-05-01 12:22 | 54.15531 | -96.89282 | 41245 ft | 507 kts | 126° |
| 2026-05-01 12:23 | 54.11191 | -96.79874 | 41233 ft | 507 kts | 126° |
| 2026-05-01 12:23 | 54.06811 | -96.70417 | 41241 ft | 507 kts | 126° |
| 2026-05-01 12:24 | 54.02457 | -96.61051 | 41231 ft | 506 kts | 126° |
| 2026-05-01 12:24 | 53.98066 | -96.51640 | 41234 ft | 506 kts | 126° |
| 2026-05-01 12:25 | 53.91495 | -96.37625 | 41244 ft | 506 kts | 126° |
| 2026-05-01 12:26 | 53.87118 | -96.28332 | 41239 ft | 506 kts | 127° |
| 2026-05-01 12:26 | 53.80511 | -96.14370 | 41233 ft | 506 kts | 127° |
| 2026-05-01 12:27 | 53.73914 | -96.00507 | 41229 ft | 505 kts | 127° |
| 2026-05-01 12:28 | 53.67282 | -95.86648 | 41230 ft | 505 kts | 127° |
| 2026-05-01 12:29 | 53.60627 | -95.72819 | 41232 ft | 505 kts | 127° |
| 2026-05-01 12:29 | 53.53996 | -95.59114 | 41225 ft | 505 kts | 127° |
| 2026-05-01 12:30 | 53.47341 | -95.45436 | 41224 ft | 505 kts | 127° |
| 2026-05-01 12:31 | 53.42889 | -95.36327 | 41225 ft | 505 kts | 127° |
| 2026-05-01 12:31 | 53.38415 | -95.27207 | 41224 ft | 505 kts | 128° |
| 2026-05-01 12:32 | 53.33966 | -95.18170 | 41225 ft | 505 kts | 128° |
| 2026-05-01 12:32 | 53.27247 | -95.04585 | 41233 ft | 505 kts | 128° |
| 2026-05-01 12:33 | 53.22787 | -94.95607 | 41229 ft | 504 kts | 128° |
| 2026-05-01 12:33 | 53.18297 | -94.86602 | 41230 ft | 504 kts | 128° |
| 2026-05-01 12:34 | 53.13793 | -94.77602 | 41227 ft | 504 kts | 128° |
| 2026-05-01 12:34 | 53.09280 | -94.68615 | 41230 ft | 504 kts | 128° |
| 2026-05-01 12:35 | 53.04794 | -94.59716 | 41230 ft | 504 kts | 128° |
| 2026-05-01 12:35 | 53.00296 | -94.50823 | 41221 ft | 504 kts | 128° |
| 2026-05-01 12:36 | 52.95771 | -94.41909 | 41220 ft | 504 kts | 128° |
| 2026-05-01 12:36 | 52.91229 | -94.32993 | 41226 ft | 504 kts | 128° |
| 2026-05-01 12:37 | 52.86722 | -94.24179 | 41219 ft | 504 kts | 128° |
| 2026-05-01 12:37 | 52.82185 | -94.15335 | 41216 ft | 504 kts | 128° |
| 2026-05-01 12:38 | 52.77632 | -94.06491 | 41216 ft | 504 kts | 128° |
| 2026-05-01 12:38 | 52.73074 | -93.97671 | 41210 ft | 504 kts | 129° |
| 2026-05-01 12:39 | 52.68541 | -93.88929 | 41210 ft | 503 kts | 129° |
| 2026-05-01 12:39 | 52.63979 | -93.80162 | 41209 ft | 504 kts | 129° |
| 2026-05-01 12:40 | 52.59408 | -93.71407 | 41208 ft | 504 kts | 129° |
| 2026-05-01 12:40 | 52.54854 | -93.62716 | 41208 ft | 504 kts | 129° |
| 2026-05-01 12:41 | 52.50265 | -93.53988 | 41208 ft | 504 kts | 129° |
| 2026-05-01 12:41 | 52.45670 | -93.45279 | 41212 ft | 504 kts | 129° |
| 2026-05-01 12:42 | 52.41083 | -93.36616 | 41209 ft | 503 kts | 129° |
| 2026-05-01 12:42 | 52.36511 | -93.28011 | 41208 ft | 503 kts | 129° |
| 2026-05-01 12:43 | 52.31897 | -93.19357 | 41208 ft | 503 kts | 129° |
| 2026-05-01 12:43 | 52.28269 | -93.12574 | 41211 ft | 503 kts | 129° |
| 2026-05-01 12:44 | 52.27514 | -93.11164 | 41210 ft | 503 kts | 129° |
| 2026-05-01 12:45 | 52.18296 | -92.94019 | 41223 ft | 504 kts | 130° |
| 2026-05-01 12:45 | 52.13660 | -92.85439 | 41211 ft | 503 kts | 130° |
| 2026-05-01 12:46 | 52.09017 | -92.76879 | 41210 ft | 503 kts | 130° |
| 2026-05-01 12:46 | 52.04400 | -92.68393 | 41211 ft | 503 kts | 130° |
| 2026-05-01 12:47 | 51.99751 | -92.59879 | 41212 ft | 503 kts | 130° |
| 2026-05-01 12:47 | 51.95092 | -92.51374 | 41208 ft | 503 kts | 130° |
| 2026-05-01 12:48 | 51.90425 | -92.42884 | 41217 ft | 503 kts | 130° |
| 2026-05-01 12:48 | 51.85790 | -92.34479 | 41209 ft | 503 kts | 130° |
| 2026-05-01 12:49 | 51.81122 | -92.26044 | 41210 ft | 503 kts | 131° |
| 2026-05-01 12:49 | 51.77226 | -92.19028 | 41208 ft | 503 kts | 131° |
| 2026-05-01 12:50 | 51.72570 | -92.10666 | 41208 ft | 503 kts | 131° |
| 2026-05-01 12:50 | 51.67894 | -92.02296 | 41205 ft | 503 kts | 131° |
| 2026-05-01 12:51 | 51.62434 | -91.92558 | 41214 ft | 502 kts | 131° |
| 2026-05-01 12:52 | 51.56184 | -91.81457 | 41208 ft | 501 kts | 131° |
| 2026-05-01 12:52 | 51.49137 | -91.69001 | 41209 ft | 501 kts | 131° |
| 2026-05-01 12:53 | 51.42108 | -91.56637 | 41212 ft | 501 kts | 131° |
| 2026-05-01 12:54 | 51.37390 | -91.48371 | 41200 ft | 502 kts | 131° |
| 2026-05-01 12:54 | 51.30342 | -91.36074 | 41194 ft | 501 kts | 132° |
| 2026-05-01 12:55 | 51.23245 | -91.23753 | 41202 ft | 501 kts | 132° |
| 2026-05-01 12:56 | 51.18511 | -91.15568 | 41192 ft | 501 kts | 132° |
| 2026-05-01 12:56 | 51.13801 | -91.07450 | 41187 ft | 501 kts | 132° |
| 2026-05-01 12:57 | 51.09056 | -90.99300 | 41191 ft | 501 kts | 132° |
| 2026-05-01 12:57 | 51.01950 | -90.87142 | 41185 ft | 501 kts | 132° |
| 2026-05-01 12:58 | 50.97188 | -90.79027 | 41188 ft | 501 kts | 132° |
| 2026-05-01 12:59 | 50.90037 | -90.66890 | 41181 ft | 501 kts | 132° |
| 2026-05-01 12:59 | 50.82888 | -90.54816 | 41175 ft | 502 kts | 133° |
| 2026-05-01 13:00 | 50.75732 | -90.42787 | 41177 ft | 502 kts | 133° |
| 2026-05-01 13:01 | 50.68643 | -90.30929 | 41177 ft | 502 kts | 133° |
| 2026-05-01 13:02 | 50.61460 | -90.18968 | 41172 ft | 502 kts | 133° |
| 2026-05-01 13:07 | 50.07150 | -89.33895 | 41156 ft | 503 kts | 135° |
| 2026-05-01 13:08 | 50.02170 | -89.26325 | 41151 ft | 503 kts | 135° |
| 2026-05-01 13:08 | 49.97158 | -89.18730 | 41150 ft | 503 kts | 135° |
| 2026-05-01 13:09 | 49.92139 | -89.11147 | 41147 ft | 503 kts | 135° |
| 2026-05-01 13:09 | 49.87138 | -89.03615 | 41149 ft | 503 kts | 135° |
| 2026-05-01 13:10 | 49.82949 | -88.97323 | 41151 ft | 503 kts | 135° |
| 2026-05-01 13:10 | 49.78670 | -88.90914 | 41143 ft | 503 kts | 135° |
| 2026-05-01 13:11 | 49.73622 | -88.83373 | 41135 ft | 503 kts | 135° |
| 2026-05-01 13:11 | 49.68597 | -88.75889 | 41143 ft | 503 kts | 135° |
| 2026-05-01 13:12 | 49.63541 | -88.68383 | 41141 ft | 503 kts | 135° |
| 2026-05-01 13:12 | 49.58509 | -88.60933 | 41139 ft | 503 kts | 136° |
| 2026-05-01 13:13 | 49.53449 | -88.53466 | 41135 ft | 503 kts | 136° |
| 2026-05-01 13:13 | 49.48365 | -88.45985 | 41132 ft | 504 kts | 136° |
| 2026-05-01 13:14 | 49.43315 | -88.38577 | 41135 ft | 504 kts | 136° |
| 2026-05-01 13:14 | 49.38263 | -88.31188 | 41131 ft | 504 kts | 136° |
| 2026-05-01 13:15 | 49.33178 | -88.23773 | 41134 ft | 504 kts | 136° |
| 2026-05-01 13:15 | 49.28084 | -88.16367 | 41130 ft | 504 kts | 136° |
| 2026-05-01 13:16 | 49.22987 | -88.08979 | 41126 ft | 504 kts | 136° |
| 2026-05-01 13:16 | 49.17903 | -88.01631 | 41128 ft | 504 kts | 136° |
| 2026-05-01 13:17 | 49.07724 | -87.86987 | 41127 ft | 504 kts | 136° |
| 2026-05-01 13:18 | 49.00035 | -87.75981 | 41121 ft | 504 kts | 136° |
| 2026-05-01 13:18 | 48.94945 | -87.68722 | 41123 ft | 504 kts | 136° |
| 2026-05-01 13:19 | 48.89812 | -87.61424 | 41125 ft | 504 kts | 136° |
| 2026-05-01 13:20 | 48.82108 | -87.50510 | 41121 ft | 504 kts | 136° |
| 2026-05-01 13:20 | 48.77001 | -87.43303 | 41115 ft | 504 kts | 137° |
| 2026-05-01 13:21 | 48.69272 | -87.32434 | 41113 ft | 505 kts | 137° |
| 2026-05-01 13:21 | 48.64161 | -87.25273 | 41114 ft | 504 kts | 137° |
| 2026-05-01 13:22 | 48.58987 | -87.18043 | 41109 ft | 505 kts | 137° |
| 2026-05-01 13:22 | 48.53806 | -87.10827 | 41110 ft | 506 kts | 137° |
| 2026-05-01 13:23 | 48.48642 | -87.03654 | 41106 ft | 506 kts | 137° |
| 2026-05-01 13:23 | 48.43453 | -86.96467 | 41107 ft | 506 kts | 137° |
| 2026-05-01 13:24 | 48.38287 | -86.89333 | 41107 ft | 506 kts | 137° |
| 2026-05-01 13:25 | 48.30517 | -86.78642 | 41103 ft | 506 kts | 137° |
| 2026-05-01 13:25 | 48.25312 | -86.71506 | 41103 ft | 506 kts | 137° |
| 2026-05-01 13:26 | 48.20097 | -86.64377 | 41103 ft | 506 kts | 137° |
| 2026-05-01 13:26 | 48.14913 | -86.57311 | 41103 ft | 506 kts | 138° |
| 2026-05-01 13:27 | 48.09707 | -86.50234 | 41097 ft | 505 kts | 138° |
| 2026-05-01 13:27 | 48.01876 | -86.39628 | 41092 ft | 505 kts | 138° |
| 2026-05-01 13:28 | 47.94073 | -86.29104 | 41090 ft | 505 kts | 138° |
| 2026-05-01 13:29 | 47.83634 | -86.15096 | 41087 ft | 505 kts | 138° |
| 2026-05-01 13:31 | 47.67975 | -85.94230 | 41082 ft | 504 kts | 138° |
| 2026-05-01 13:32 | 47.54877 | -85.76911 | 41083 ft | 504 kts | 139° |
| 2026-05-01 13:33 | 47.41759 | -85.59686 | 41081 ft | 505 kts | 139° |
| 2026-05-01 13:34 | 47.31266 | -85.45994 | 41078 ft | 505 kts | 139° |
| 2026-05-01 13:35 | 47.23336 | -85.35695 | 41074 ft | 506 kts | 139° |
| 2026-05-01 13:36 | 47.15430 | -85.25472 | 41075 ft | 506 kts | 139° |
| 2026-05-01 13:36 | 47.07519 | -85.15283 | 41066 ft | 506 kts | 139° |
| 2026-05-01 13:37 | 47.03107 | -85.09619 | 41070 ft | 506 kts | 139° |
| 2026-05-01 13:37 | 46.96897 | -85.01668 | 41067 ft | 506 kts | 140° |
| 2026-05-01 13:38 | 46.88961 | -84.91545 | 41061 ft | 506 kts | 140° |
| 2026-05-01 13:39 | 46.83630 | -84.84768 | 41060 ft | 506 kts | 140° |
| 2026-05-01 13:39 | 46.78331 | -84.78049 | 41056 ft | 507 kts | 140° |
| 2026-05-01 13:40 | 46.73895 | -84.72439 | 41050 ft | 507 kts | 140° |
| 2026-05-01 13:40 | 46.68566 | -84.65717 | 41042 ft | 507 kts | 140° |
| 2026-05-01 13:41 | 46.63227 | -84.59000 | 41032 ft | 507 kts | 140° |
| 2026-05-01 13:41 | 46.57881 | -84.52293 | 41027 ft | 507 kts | 140° |
| 2026-05-01 13:42 | 46.52569 | -84.45645 | 41027 ft | 507 kts | 140° |
| 2026-05-01 13:42 | 46.47220 | -84.38970 | 41027 ft | 507 kts | 140° |
| 2026-05-01 13:43 | 46.41937 | -84.32238 | 41015 ft | 507 kts | 136° |
| 2026-05-01 13:43 | 46.37290 | -84.24511 | 41037 ft | 509 kts | 130° |
| 2026-05-01 13:44 | 46.32828 | -84.16525 | 41031 ft | 509 kts | 129° |
| 2026-05-01 13:44 | 46.28415 | -84.08550 | 41033 ft | 509 kts | 130° |
| 2026-05-01 13:45 | 46.23979 | -84.00589 | 41021 ft | 509 kts | 130° |
| 2026-05-01 13:45 | 46.19509 | -83.92620 | 41004 ft | 509 kts | 130° |
| 2026-05-01 13:46 | 46.15031 | -83.84668 | 40999 ft | 510 kts | 130° |
| 2026-05-01 13:46 | 46.10557 | -83.76749 | 40990 ft | 511 kts | 130° |
| 2026-05-01 13:47 | 46.06063 | -83.68814 | 40994 ft | 511 kts | 130° |
| 2026-05-01 13:47 | 46.01590 | -83.60937 | 40990 ft | 510 kts | 130° |
| 2026-05-01 13:48 | 45.97078 | -83.53015 | 40993 ft | 510 kts | 131° |
| 2026-05-01 13:48 | 45.92565 | -83.45113 | 41002 ft | 511 kts | 131° |
| 2026-05-01 13:49 | 45.88067 | -83.37262 | 41018 ft | 512 kts | 131° |
| 2026-05-01 13:49 | 45.83534 | -83.29369 | 41010 ft | 512 kts | 131° |
| 2026-05-01 13:50 | 45.78993 | -83.21486 | 41014 ft | 511 kts | 131° |
| 2026-05-01 13:50 | 45.74485 | -83.13681 | 41009 ft | 512 kts | 131° |
| 2026-05-01 13:51 | 45.69924 | -83.05809 | 41010 ft | 513 kts | 131° |
| 2026-05-01 13:51 | 45.65385 | -82.97994 | 41013 ft | 513 kts | 131° |
| 2026-05-01 13:52 | 45.60808 | -82.90136 | 41016 ft | 513 kts | 131° |
| 2026-05-01 13:52 | 45.56264 | -82.82358 | 41013 ft | 512 kts | 131° |
| 2026-05-01 13:53 | 45.51685 | -82.74541 | 41004 ft | 513 kts | 132° |
| 2026-05-01 13:53 | 45.44792 | -82.62815 | 41008 ft | 514 kts | 132° |
| 2026-05-01 13:54 | 45.40221 | -82.55065 | 41004 ft | 513 kts | 132° |
| 2026-05-01 13:54 | 45.35607 | -82.47266 | 41003 ft | 513 kts | 132° |
| 2026-05-01 13:55 | 45.31028 | -82.39545 | 41001 ft | 513 kts | 132° |
| 2026-05-01 13:55 | 45.26400 | -82.31765 | 41004 ft | 515 kts | 132° |
| 2026-05-01 13:56 | 45.21768 | -82.23999 | 41001 ft | 515 kts | 133° |
| 2026-05-01 13:56 | 45.17159 | -82.16293 | 41007 ft | 514 kts | 133° |
| 2026-05-01 13:57 | 45.12511 | -82.08543 | 41007 ft | 514 kts | 133° |
| 2026-05-01 13:57 | 45.07862 | -82.00811 | 41012 ft | 515 kts | 133° |
| 2026-05-01 13:58 | 45.03232 | -81.93134 | 41009 ft | 516 kts | 133° |
| 2026-05-01 13:58 | 44.98565 | -81.85417 | 41009 ft | 516 kts | 133° |
| 2026-05-01 13:59 | 44.93898 | -81.77720 | 41009 ft | 516 kts | 133° |
| 2026-05-01 13:59 | 44.89244 | -81.70066 | 41012 ft | 516 kts | 133° |
| 2026-05-01 14:00 | 44.84552 | -81.62368 | 41012 ft | 517 kts | 133° |
| 2026-05-01 14:00 | 44.79849 | -81.54677 | 41012 ft | 517 kts | 133° |
| 2026-05-01 14:01 | 44.75143 | -81.46999 | 41015 ft | 517 kts | 133° |
| 2026-05-01 14:01 | 44.70469 | -81.39395 | 41015 ft | 517 kts | 133° |
| 2026-05-01 14:02 | 44.65747 | -81.31734 | 41007 ft | 517 kts | 134° |
| 2026-05-01 14:02 | 44.61013 | -81.24073 | 41016 ft | 519 kts | 134° |
| 2026-05-01 14:03 | 44.56303 | -81.16471 | 41015 ft | 518 kts | 134° |
| 2026-05-01 14:03 | 44.51559 | -81.08837 | 41015 ft | 518 kts | 134° |
| 2026-05-01 14:04 | 44.46805 | -81.01207 | 41018 ft | 518 kts | 134° |
| 2026-05-01 14:04 | 44.42856 | -80.94884 | 41018 ft | 518 kts | 134° |
| 2026-05-01 14:05 | 44.38925 | -80.88604 | 41010 ft | 518 kts | 134° |
| 2026-05-01 14:08 | 44.31246 | -80.76377 | 41015 ft | 517 kts | 134° |
| 2026-05-01 14:08 | 44.26515 | -80.68871 | 41013 ft | 517 kts | 134° |
| 2026-05-01 14:09 | 44.21744 | -80.61319 | 41004 ft | 518 kts | 134° |
| 2026-05-01 14:09 | 44.16963 | -80.53773 | 41010 ft | 519 kts | 134° |
| 2026-05-01 14:10 | 44.12200 | -80.46276 | 41007 ft | 519 kts | 134° |
| 2026-05-01 14:10 | 44.07400 | -80.38739 | 41007 ft | 519 kts | 134° |
| 2026-05-01 14:11 | 44.02603 | -80.31229 | 41010 ft | 519 kts | 134° |
| 2026-05-01 14:11 | 43.95420 | -80.20018 | 41004 ft | 519 kts | 135° |
| 2026-05-01 14:12 | 43.90624 | -80.12557 | 41008 ft | 519 kts | 135° |
| 2026-05-01 14:12 | 43.85809 | -80.05087 | 41002 ft | 519 kts | 135° |
| 2026-05-01 14:13 | 43.81796 | -79.98875 | 41012 ft | 519 kts | 135° |
| 2026-05-01 14:13 | 43.76186 | -79.90214 | 41003 ft | 519 kts | 135° |
| 2026-05-01 14:14 | 43.71350 | -79.82771 | 41012 ft | 520 kts | 135° |
| 2026-05-01 14:14 | 43.66504 | -79.75331 | 41007 ft | 520 kts | 135° |
| 2026-05-01 14:15 | 43.61681 | -79.67945 | 40990 ft | 519 kts | 135° |
| 2026-05-01 14:15 | 43.56835 | -79.60543 | 41007 ft | 519 kts | 135° |
| 2026-05-01 14:16 | 43.51978 | -79.53144 | 41001 ft | 520 kts | 135° |
| 2026-05-01 14:16 | 43.47128 | -79.45775 | 41004 ft | 521 kts | 135° |
| 2026-05-01 14:17 | 43.42256 | -79.38391 | 41000 ft | 521 kts | 135° |
| 2026-05-01 14:17 | 43.37411 | -79.31066 | 41004 ft | 520 kts | 135° |
| 2026-05-01 14:18 | 43.32523 | -79.23696 | 41004 ft | 520 kts | 135° |
| 2026-05-01 14:18 | 43.28459 | -79.17582 | 41007 ft | 521 kts | 136° |
| 2026-05-01 14:19 | 43.22769 | -79.09044 | 40908 ft | 516 kts | 136° |
| 2026-05-01 14:19 | 43.20347 | -79.05416 | 40684 ft | 516 kts | 136° |
| 2026-05-01 14:19 | 43.17909 | -79.01771 | 40418 ft | 519 kts | 136° |
| 2026-05-01 14:20 | 43.15461 | -78.98118 | 40184 ft | 520 kts | 136° |
| 2026-05-01 14:20 | 43.10587 | -78.90854 | 39679 ft | 521 kts | 136° |
| 2026-05-01 14:20 | 43.08127 | -78.87195 | 39166 ft | 521 kts | 136° |
| 2026-05-01 14:21 | 43.05669 | -78.83542 | 38692 ft | 522 kts | 136° |
| 2026-05-01 14:21 | 43.03205 | -78.79885 | 38023 ft | 523 kts | 136° |
| 2026-05-01 14:21 | 43.00731 | -78.76219 | 37346 ft | 524 kts | 136° |
| 2026-05-01 14:22 | 42.95790 | -78.68842 | 36042 ft | 528 kts | 133° |
| 2026-05-01 14:22 | 42.93645 | -78.64829 | 35424 ft | 533 kts | 124° |
| 2026-05-01 14:22 | 42.91955 | -78.60310 | 34822 ft | 537 kts | 114° |
| 2026-05-01 14:22 | 42.90675 | -78.55511 | 34238 ft | 539 kts | 110° |
| 2026-05-01 14:23 | 42.89485 | -78.50651 | 33574 ft | 541 kts | 110° |
| 2026-05-01 14:23 | 42.88297 | -78.45751 | 32898 ft | 542 kts | 110° |
| 2026-05-01 14:23 | 42.87119 | -78.40912 | 32217 ft | 544 kts | 110° |
| 2026-05-01 14:23 | 42.85916 | -78.35987 | 31562 ft | 546 kts | 111° |
| 2026-05-01 14:24 | 42.84711 | -78.31069 | 30902 ft | 547 kts | 111° |
| 2026-05-01 14:24 | 42.83501 | -78.26145 | 30294 ft | 546 kts | 111° |
| 2026-05-01 14:24 | 42.82296 | -78.21249 | 29595 ft | 542 kts | 111° |
| 2026-05-01 14:24 | 42.81099 | -78.16399 | 28805 ft | 537 kts | 111° |
| 2026-05-01 14:25 | 42.79910 | -78.11595 | 28086 ft | 533 kts | 111° |
| 2026-05-01 14:25 | 42.78739 | -78.06873 | 27397 ft | 528 kts | 111° |
| 2026-05-01 14:25 | 42.77567 | -78.02154 | 26695 ft | 521 kts | 111° |
| 2026-05-01 14:25 | 42.76410 | -77.97507 | 26030 ft | 515 kts | 111° |
| 2026-05-01 14:26 | 42.75265 | -77.92917 | 25378 ft | 508 kts | 111° |
| 2026-05-01 14:26 | 42.73029 | -77.83978 | 24244 ft | 495 kts | 112° |
| 2026-05-01 14:26 | 42.71919 | -77.79557 | 23723 ft | 490 kts | 112° |
| 2026-05-01 14:27 | 42.70818 | -77.75179 | 23127 ft | 486 kts | 112° |
| 2026-05-01 14:27 | 42.69738 | -77.70895 | 22511 ft | 481 kts | 112° |
| 2026-05-01 14:27 | 42.68653 | -77.66598 | 21912 ft | 476 kts | 111° |
| 2026-05-01 14:28 | 42.66518 | -77.58160 | 20743 ft | 466 kts | 111° |
| 2026-05-01 14:28 | 42.65467 | -77.54016 | 20204 ft | 461 kts | 111° |
| 2026-05-01 14:28 | 42.64425 | -77.49918 | 19783 ft | 457 kts | 111° |
| 2026-05-01 14:28 | 42.63400 | -77.45892 | 19387 ft | 454 kts | 111° |
| 2026-05-01 14:29 | 42.62367 | -77.41845 | 19004 ft | 451 kts | 111° |
| 2026-05-01 14:29 | 42.61339 | -77.37822 | 18609 ft | 448 kts | 111° |
| 2026-05-01 14:30 | 42.58205 | -77.25605 | 17705 ft | 463 kts | 110° |
| 2026-05-01 14:30 | 42.57157 | -77.21529 | 17395 ft | 463 kts | 110° |
| 2026-05-01 14:30 | 42.56095 | -77.17404 | 17075 ft | 461 kts | 110° |
| 2026-05-01 14:31 | 42.53976 | -77.09201 | 16449 ft | 459 kts | 110° |
| 2026-05-01 14:31 | 42.52920 | -77.05129 | 16142 ft | 457 kts | 110° |
| 2026-05-01 14:31 | 42.51864 | -77.01055 | 16024 ft | 457 kts | 110° |
| 2026-05-01 14:31 | 42.50822 | -76.97046 | 16020 ft | 457 kts | 110° |
| 2026-05-01 14:32 | 42.49765 | -76.92986 | 16023 ft | 456 kts | 110° |
| 2026-05-01 14:32 | 42.48706 | -76.88922 | 16023 ft | 456 kts | 110° |
| 2026-05-01 14:32 | 42.47647 | -76.84866 | 16019 ft | 455 kts | 110° |
| 2026-05-01 14:32 | 42.46585 | -76.80805 | 16020 ft | 454 kts | 110° |
| 2026-05-01 14:33 | 42.45544 | -76.76836 | 16027 ft | 454 kts | 110° |
| 2026-05-01 14:33 | 42.44486 | -76.72805 | 16006 ft | 454 kts | 110° |
| 2026-05-01 14:33 | 42.43426 | -76.68775 | 16021 ft | 454 kts | 110° |
| 2026-05-01 14:33 | 42.42364 | -76.64741 | 16004 ft | 454 kts | 110° |
| 2026-05-01 14:34 | 42.41300 | -76.60710 | 16003 ft | 454 kts | 110° |
| 2026-05-01 14:34 | 42.40236 | -76.56685 | 15999 ft | 454 kts | 110° |
| 2026-05-01 14:34 | 42.39172 | -76.52664 | 16001 ft | 454 kts | 111° |
| 2026-05-01 14:34 | 42.38105 | -76.48640 | 16013 ft | 453 kts | 111° |
| 2026-05-01 14:35 | 42.37039 | -76.44626 | 16014 ft | 452 kts | 111° |
| 2026-05-01 14:35 | 42.35988 | -76.40673 | 15997 ft | 452 kts | 111° |
| 2026-05-01 14:35 | 42.34826 | -76.36725 | 16016 ft | 450 kts | 117° |
| 2026-05-01 14:35 | 42.33236 | -76.33080 | 16012 ft | 448 kts | 126° |
| 2026-05-01 14:36 | 42.31469 | -76.29601 | 16013 ft | 447 kts | 127° |
| 2026-05-01 14:36 | 42.29663 | -76.26168 | 16013 ft | 447 kts | 128° |
| 2026-05-01 14:36 | 42.27869 | -76.22799 | 15997 ft | 447 kts | 128° |
| 2026-05-01 14:36 | 42.26044 | -76.19393 | 16004 ft | 447 kts | 128° |
| 2026-05-01 14:37 | 42.24215 | -76.15990 | 16004 ft | 447 kts | 128° |
| 2026-05-01 14:37 | 42.22380 | -76.12585 | 15987 ft | 447 kts | 129° |
| 2026-05-01 14:37 | 42.20547 | -76.09191 | 15970 ft | 446 kts | 129° |
| 2026-05-01 14:37 | 42.18721 | -76.05814 | 15997 ft | 446 kts | 129° |
| 2026-05-01 14:38 | 42.16890 | -76.02433 | 15979 ft | 446 kts | 129° |
| 2026-05-01 14:38 | 42.15083 | -75.99095 | 15984 ft | 446 kts | 129° |
| 2026-05-01 14:38 | 42.13244 | -75.95707 | 15995 ft | 446 kts | 129° |
| 2026-05-01 14:38 | 42.11410 | -75.92331 | 15994 ft | 446 kts | 129° |
| 2026-05-01 14:39 | 42.10196 | -75.90099 | 15992 ft | 446 kts | 129° |
| 2026-05-01 14:39 | 42.07758 | -75.85622 | 15996 ft | 446 kts | 129° |
| 2026-05-01 14:39 | 42.05920 | -75.82252 | 16002 ft | 446 kts | 129° |
| 2026-05-01 14:39 | 42.04699 | -75.80017 | 15997 ft | 446 kts | 129° |
| 2026-05-01 14:40 | 42.02858 | -75.76645 | 15986 ft | 446 kts | 129° |
| 2026-05-01 14:40 | 42.01015 | -75.73271 | 15993 ft | 445 kts | 129° |
| 2026-05-01 14:40 | 41.99177 | -75.69915 | 15994 ft | 445 kts | 129° |
| 2026-05-01 14:40 | 41.97330 | -75.66545 | 15994 ft | 445 kts | 129° |
| 2026-05-01 14:41 | 41.95515 | -75.63236 | 15996 ft | 445 kts | 129° |
| 2026-05-01 14:41 | 41.93671 | -75.59878 | 15996 ft | 445 kts | 129° |
| 2026-05-01 14:41 | 41.91832 | -75.56536 | 15992 ft | 445 kts | 129° |
| 2026-05-01 14:41 | 41.89985 | -75.53182 | 15995 ft | 445 kts | 129° |
| 2026-05-01 14:42 | 41.88160 | -75.49867 | 15996 ft | 445 kts | 129° |
| 2026-05-01 14:42 | 41.86314 | -75.46520 | 15996 ft | 445 kts | 129° |
| 2026-05-01 14:42 | 41.84469 | -75.43177 | 15999 ft | 445 kts | 129° |
| 2026-05-01 14:42 | 41.82622 | -75.39833 | 15996 ft | 445 kts | 129° |
| 2026-05-01 14:43 | 41.80777 | -75.36499 | 16000 ft | 445 kts | 129° |
| 2026-05-01 14:43 | 41.78932 | -75.33169 | 15995 ft | 444 kts | 129° |
| 2026-05-01 14:43 | 41.77104 | -75.29876 | 15995 ft | 445 kts | 129° |
| 2026-05-01 14:43 | 41.75263 | -75.26559 | 16000 ft | 444 kts | 129° |
| 2026-05-01 14:44 | 41.73412 | -75.23229 | 15996 ft | 444 kts | 130° |
| 2026-05-01 14:44 | 41.69727 | -75.16611 | 15998 ft | 436 kts | 130° |
| 2026-05-01 14:44 | 41.67932 | -75.13387 | 16003 ft | 428 kts | 130° |
| 2026-05-01 14:45 | 41.66155 | -75.10199 | 15998 ft | 426 kts | 130° |
| 2026-05-01 14:45 | 41.62617 | -75.03877 | 15985 ft | 426 kts | 130° |
| 2026-05-01 14:45 | 41.60836 | -75.00699 | 15993 ft | 426 kts | 130° |
| 2026-05-01 14:46 | 41.59055 | -74.97521 | 15784 ft | 425 kts | 130° |
| 2026-05-01 14:46 | 41.55543 | -74.91267 | 15162 ft | 422 kts | 130° |
| 2026-05-01 14:46 | 41.53778 | -74.88127 | 14782 ft | 419 kts | 130° |
| 2026-05-01 14:47 | 41.52030 | -74.85021 | 14373 ft | 417 kts | 130° |
| 2026-05-01 14:47 | 41.50291 | -74.81935 | 13977 ft | 414 kts | 130° |
| 2026-05-01 14:47 | 41.48567 | -74.78878 | 13579 ft | 411 kts | 130° |
| 2026-05-01 14:48 | 41.45163 | -74.72853 | 12739 ft | 405 kts | 129° |
| 2026-05-01 14:48 | 41.43468 | -74.69856 | 12313 ft | 403 kts | 129° |
| 2026-05-01 14:48 | 41.40142 | -74.63983 | 11389 ft | 386 kts | 129° |
| 2026-05-01 14:49 | 41.37015 | -74.58470 | 10468 ft | 365 kts | 129° |
| 2026-05-01 14:49 | 41.34017 | -74.53197 | 9501 ft | 348 kts | 129° |
| 2026-05-01 14:50 | 41.31630 | -74.49008 | 8667 ft | 335 kts | 128° |
| 2026-05-01 14:50 | 41.28201 | -74.43720 | 7828 ft | 316 kts | 145° |
| 2026-05-01 14:51 | 41.26371 | -74.42086 | 7579 ft | 315 kts | 149° |
| 2026-05-01 14:51 | 41.22829 | -74.39134 | 6929 ft | 289 kts | 149° |
| 2026-05-01 14:52 | 41.19500 | -74.36351 | 5909 ft | 272 kts | 148° |
| 2026-05-01 14:52 | 41.17945 | -74.35045 | 5421 ft | 263 kts | 149° |
| 2026-05-01 14:52 | 41.14950 | -74.32531 | 4427 ft | 247 kts | 148° |
| 2026-05-01 14:53 | 41.13525 | -74.31336 | 4033 ft | 238 kts | 147° |
| 2026-05-01 14:53 | 41.12145 | -74.30174 | 3616 ft | 232 kts | 146° |
| 2026-05-01 14:53 | 41.10774 | -74.29009 | 3189 ft | 234 kts | 147° |
| 2026-05-01 14:53 | 41.09394 | -74.27861 | 2749 ft | 234 kts | 146° |
| 2026-05-01 14:54 | 41.08014 | -74.26711 | 2308 ft | 235 kts | 146° |
| 2026-05-01 14:54 | 41.06661 | -74.25571 | 2037 ft | 226 kts | 146° |
| 2026-05-01 14:54 | 41.05385 | -74.24488 | 2005 ft | 215 kts | 147° |
| 2026-05-01 14:54 | 41.04121 | -74.23428 | 2005 ft | 210 kts | 147° |
| 2026-05-01 14:55 | 41.02896 | -74.22412 | 2017 ft | 206 kts | 147° |
| 2026-05-01 14:55 | 41.01685 | -74.21402 | 2001 ft | 206 kts | 146° |
| 2026-05-01 14:55 | 41.00468 | -74.20385 | 1999 ft | 207 kts | 146° |
| 2026-05-01 14:55 | 40.99250 | -74.19370 | 2007 ft | 207 kts | 146° |
| 2026-05-01 14:56 | 40.98032 | -74.18353 | 2005 ft | 206 kts | 147° |
| 2026-05-01 14:56 | 40.96838 | -74.17358 | 2009 ft | 206 kts | 147° |
| 2026-05-01 14:56 | 40.95626 | -74.16345 | 2011 ft | 205 kts | 146° |
| 2026-05-01 14:56 | 40.94417 | -74.15337 | 2007 ft | 206 kts | 147° |
| 2026-05-01 14:57 | 40.93193 | -74.14346 | 1996 ft | 207 kts | 149° |
| 2026-05-01 14:57 | 40.90677 | -74.12488 | 2018 ft | 206 kts | 150° |
| 2026-05-01 14:57 | 40.89428 | -74.11567 | 2001 ft | 205 kts | 150° |
| 2026-05-01 14:58 | 40.88191 | -74.10650 | 1997 ft | 207 kts | 149° |
| 2026-05-01 14:58 | 40.86938 | -74.09718 | 1996 ft | 207 kts | 149° |
| 2026-05-01 14:58 | 40.85679 | -74.08781 | 2000 ft | 207 kts | 149° |
| 2026-05-01 14:58 | 40.84406 | -74.07944 | 1991 ft | 208 kts | 159° |
| 2026-05-01 14:59 | 40.82986 | -74.07711 | 2017 ft | 199 kts | 181° |
| 2026-05-01 14:59 | 40.81716 | -74.08176 | 2018 ft | 184 kts | 220° |
| 2026-05-01 14:59 | 40.80610 | -74.08903 | 2015 ft | 180 kts | 206° |
| 2026-05-01 14:59 | 40.79505 | -74.09671 | 2008 ft | 180 kts | 211° |
| 2026-05-01 15:00 | 40.77317 | -74.11237 | 1769 ft | 179 kts | 213° |
| 2026-05-01 15:00 | 40.76221 | -74.11992 | 1508 ft | 176 kts | 215° |
| 2026-05-01 15:00 | 40.75153 | -74.12668 | 1256 ft | 161 kts | 219° |
| 2026-05-01 15:01 | 40.74195 | -74.13310 | 1034 ft | 151 kts | 197° |
| 2026-05-01 15:01 | 40.73241 | -74.13769 | 771 ft | 141 kts | 211° |
| 2026-05-01 15:01 | 40.72415 | -74.14384 | 603 ft | 132 kts | 212° |
| 2026-05-01 15:01 | 40.71621 | -74.14941 | 386 ft | 127 kts | 211° |
| 2026-05-01 15:02 | 40.70840 | -74.15429 | 244 ft | 123 kts | 208° |
| 2026-05-01 15:02 | 40.70329 | -74.15775 | 123 ft | 124 kts | 210° |
| 2026-05-01 15:02 | 40.69320 | -74.16431 | 29 ft | 108 kts | 206° |
| 2026-05-01 15:02 | 40.68759 | -74.16787 | 29 ft | 75 kts | 205° |
| 2026-05-01 15:03 | 40.68368 | -74.17037 | 27 ft | 49 kts | 205° |
| 2026-05-01 15:03 | 40.68267 | -74.17162 | 29 ft | 9 kts | 238° |
| 2026-05-01 15:03 | 40.68226 | -74.17252 | 27 ft | 13 kts | 239° |
| 2026-05-01 15:03 | 40.68170 | -74.17362 | 29 ft | 16 kts | 235° |
| 2026-05-01 15:04 | 40.68158 | -74.17483 | 27 ft | 13 kts | 292° |
| 2026-05-01 15:04 | 40.68201 | -74.17597 | 31 ft | 15 kts | 296° |
| 2026-05-01 15:04 | 40.68271 | -74.17700 | 26 ft | 16 kts | 328° |
| 2026-05-01 15:04 | 40.68370 | -74.17697 | 25 ft | 15 kts | 24° |
| 2026-05-01 15:05 | 40.68475 | -74.17628 | 27 ft | 19 kts | 25° |
| 2026-05-01 15:05 | 40.68608 | -74.17547 | 27 ft | 23 kts | 25° |
| 2026-05-01 15:05 | 40.68766 | -74.17453 | 27 ft | 26 kts | 27° |
| 2026-05-01 15:05 | 40.68914 | -74.17350 | 26 ft | 26 kts | 26° |
| 2026-05-01 15:06 | 40.69038 | -74.17274 | 31 ft | 16 kts | 26° |
| 2026-05-01 15:06 | 40.69099 | -74.17251 | 31 ft | 2 kts | 327° |
| 2026-05-01 15:06 | 40.69103 | -74.17281 | 26 ft | 9 kts | 273° |
| 2026-05-01 15:06 | 40.69123 | -74.17335 | 26 ft | 5 kts | 326° |
| 2026-05-01 15:07 | 40.69154 | -74.17366 | 25 ft | 0 kts | 321° |
| 2026-05-01 15:07 | 40.69157 | -74.17369 | 25 ft | 0 kts | 320° |
| 2026-05-01 15:15 | 40.76867 | -74.11534 | 1659 ft | 178 kts | 213° |
| 2026-05-01 15:16 | 40.74670 | -74.13074 | 1125 ft | 155 kts | 217° |
| 2026-05-01 15:16 | 40.72697 | -74.14171 | 661 ft | 134 kts | 214° |
| 2026-05-01 15:17 | 40.70879 | -74.15404 | 252 ft | 123 kts | 208° |
| 2026-05-01 15:18 | 40.68548 | -74.16922 | 29 ft | 63 kts | 206° |
| 2026-05-01 15:18 | 40.70664 | -74.15547 | 211 ft | 124 kts | 212° |
| 2026-05-01 15:19 | 40.74462 | -74.13196 | 1080 ft | 154 kts | 205° |
| 2026-05-01 15:19 | 40.72533 | -74.14295 | 634 ft | 133 kts | 213° |
| 2026-05-01 15:19 | 40.71680 | -74.14901 | 403 ft | 127 kts | 210° |
| 2026-05-01 15:20 | 40.69859 | -74.16082 | 46 ft | 123 kts | 208° |
| 2026-05-01 15:20 | 40.68991 | -74.16649 | 26 ft | 89 kts | 208° |
| 2026-05-01 15:20 | 40.75114 | -74.12701 | 1241 ft | 160 kts | 220° |
| 2026-05-01 15:21 | 40.74095 | -74.13350 | 988 ft | 150 kts | 199° |
| 2026-05-01 15:21 | 40.71768 | -74.14840 | 417 ft | 128 kts | 209° |
| 2026-05-01 15:21 | 40.71069 | -74.15287 | 269 ft | 123 kts | 210° |
| 2026-05-01 15:22 | 40.70285 | -74.15806 | 114 ft | 124 kts | 211° |
| 2026-05-01 15:23 | 40.69436 | -74.16355 | 30 ft | 115 kts | 209° |
| 2026-05-01 15:23 | 40.68769 | -74.16781 | 28 ft | 76 kts | 204° |
| 2026-05-01 15:23 | 40.70317 | -74.15783 | 120 ft | 124 kts | 210° |
| 2026-05-01 15:23 | 40.69387 | -74.16389 | 30 ft | 112 kts | 205° |
| 2026-05-01 15:24 | 40.68716 | -74.16814 | 30 ft | 73 kts | 206° |
| 2026-05-01 15:24 | 40.70397 | -74.15728 | 146 ft | 124 kts | 209° |
| 2026-05-01 15:24 | 40.69462 | -74.16337 | 30 ft | 116 kts | 210° |
| 2026-05-01 15:24 | 40.68729 | -74.16806 | 28 ft | 74 kts | 206° |
| 2026-05-01 15:25 | 40.70904 | -74.15388 | 256 ft | 122 kts | 208° |